PWSweather.com
Personal Weather Stations
Station Observations
KM01CL
Kitemaniak 01, Castiglione Del LagoIT 06061

Kitemaniak 01Castiglione Del LagoIT 06061

Lat: 43.133808, Lon: 12.045753

Elevation: 997

Station Type: Ventus W831

High Low Average
Temperature 52.9°F11.6°C 43.9°F6.6°C 48.7°F9.3°C
Dew Point 48.5°F9.2°C 42.0°F5.6°C 45.1°F7.3°C
Winds 18.3 mph 29.5 kmh Calm Calm 6.0 mph SE9.7 kmh SE
Wind Gusts 26.6 mph42.8 kmh -- 8.0 mph12.9 kmh
Humidity 94% 74% 87%
Pressure 29.67 in1004.7 mb 29.56 in1001.0 mb -
Precipitation 0.89 in22.6 mm - -
Hour Temp Dew Point Humidity Winds Wind Gusts Pressure Precip Precip Rate Daily Precip Total
12:00 AM 52.0°F11.1°C 47.3°F8.5°C 84% 8.3 mph S13.4 kmh S 11.4 mph18.3 kmh 29.61 in1002.7 mb 0.01 in0.3 mm 0.00 in0.0 mm 0.11 in2.8 mm
12:02 AM 52.0°F11.1°C 47.3°F8.5°C 84% 13.7 mph SE22.0 kmh SE 15.9 mph25.6 kmh 29.61 in1002.7 mb 0.01 in0.3 mm 0.00 in0.0 mm 0.01 in0.3 mm
12:04 AM 52.0°F11.1°C 47.3°F8.5°C 84% 11.4 mph SE18.3 kmh SE 15.2 mph24.5 kmh 29.61 in1002.7 mb 0.01 in0.3 mm 0.00 in0.0 mm 0.01 in0.3 mm
12:06 AM 52.0°F11.1°C 47.3°F8.5°C 84% 12.1 mph SSE19.5 kmh SSE 15.2 mph24.5 kmh 29.61 in1002.7 mb 0.01 in0.3 mm 0.00 in0.0 mm 0.01 in0.3 mm
12:08 AM 52.0°F11.1°C 47.3°F8.5°C 84% 9.8 mph S15.8 kmh S 10.7 mph17.2 kmh 29.61 in1002.7 mb 0.01 in0.3 mm 0.00 in0.0 mm 0.01 in0.3 mm
12:10 AM 52.0°F11.1°C 47.3°F8.5°C 84% 13.0 mph SE20.9 kmh SE 14.5 mph23.3 kmh 29.61 in1002.7 mb 0.01 in0.3 mm 0.00 in0.0 mm 0.01 in0.3 mm
12:12 AM 52.0°F11.1°C 47.3°F8.5°C 84% 13.7 mph SE22.0 kmh SE 17.5 mph28.2 kmh 29.61 in1002.7 mb 0.01 in0.3 mm 0.00 in0.0 mm 0.01 in0.3 mm
12:14 AM 52.2°F11.2°C 47.5°F8.6°C 84% 8.3 mph SSE13.4 kmh SSE 11.4 mph18.3 kmh 29.61 in1002.7 mb 0.01 in0.3 mm 0.00 in0.0 mm 0.01 in0.3 mm
12:16 AM 52.2°F11.2°C 47.5°F8.6°C 84% 13.0 mph S20.9 kmh S 14.5 mph23.3 kmh 29.61 in1002.7 mb 0.01 in0.3 mm 0.00 in0.0 mm 0.01 in0.3 mm
12:18 AM 52.2°F11.2°C 47.5°F8.6°C 84% 9.8 mph S15.8 kmh S 13.0 mph20.9 kmh 29.61 in1002.7 mb 0.01 in0.3 mm 0.00 in0.0 mm 0.01 in0.3 mm
12:20 AM 52.2°F11.2°C 47.5°F8.6°C 84% 13.7 mph SE22.0 kmh SE 15.2 mph24.5 kmh 29.61 in1002.7 mb 0.01 in0.3 mm 0.00 in0.0 mm 0.01 in0.3 mm
12:22 AM 52.2°F11.2°C 47.5°F8.6°C 84% 13.7 mph SE22.0 kmh SE 16.8 mph27.0 kmh 29.61 in1002.7 mb 0.01 in0.3 mm 0.00 in0.0 mm 0.01 in0.3 mm
12:24 AM 52.2°F11.2°C 47.5°F8.6°C 84% 12.1 mph SE19.5 kmh SE 14.5 mph23.3 kmh 29.62 in1003.0 mb 0.01 in0.3 mm 0.00 in0.0 mm 0.01 in0.3 mm
12:26 AM 52.2°F11.2°C 47.5°F8.6°C 84% 11.4 mph S18.3 kmh S 13.7 mph22.0 kmh 29.60 in1002.4 mb 0.01 in0.3 mm 0.00 in0.0 mm 0.01 in0.3 mm
12:28 AM 52.2°F11.2°C 47.5°F8.6°C 84% 17.5 mph S28.2 kmh S 22.8 mph36.7 kmh 29.60 in1002.4 mb 0.01 in0.3 mm 0.00 in0.0 mm 0.01 in0.3 mm
12:30 AM 52.3°F11.3°C 47.7°F8.7°C 84% 13.0 mph S20.9 kmh S 15.9 mph25.6 kmh 29.60 in1002.4 mb 0.01 in0.3 mm 0.00 in0.0 mm 0.01 in0.3 mm
12:32 AM 52.3°F11.3°C 47.7°F8.7°C 84% 13.7 mph S22.0 kmh S 20.6 mph33.2 kmh 29.60 in1002.4 mb 0.01 in0.3 mm 0.00 in0.0 mm 0.01 in0.3 mm
12:34 AM 52.3°F11.3°C 47.7°F8.7°C 84% 13.0 mph SE20.9 kmh SE 15.9 mph25.6 kmh 29.60 in1002.4 mb 0.01 in0.3 mm 0.00 in0.0 mm 0.01 in0.3 mm
12:36 AM 52.3°F11.3°C 47.3°F8.5°C 83% 9.8 mph SE15.8 kmh SE 13.7 mph22.0 kmh 29.60 in1002.4 mb 0.01 in0.3 mm 0.00 in0.0 mm 0.01 in0.3 mm
12:38 AM 52.3°F11.3°C 47.3°F8.5°C 83% 9.2 mph SSE14.8 kmh SSE 11.4 mph18.3 kmh 29.59 in1002.0 mb 0.01 in0.3 mm 0.00 in0.0 mm 0.01 in0.3 mm
12:40 AM 52.3°F11.3°C 47.3°F8.5°C 83% 12.1 mph SE19.5 kmh SE 16.8 mph27.0 kmh 29.59 in1002.0 mb 0.01 in0.3 mm 0.00 in0.0 mm 0.01 in0.3 mm
12:42 AM 52.3°F11.3°C 47.3°F8.5°C 83% 9.8 mph SE15.8 kmh SE 11.4 mph18.3 kmh 29.60 in1002.4 mb 0.01 in0.3 mm 0.00 in0.0 mm 0.01 in0.3 mm
12:44 AM 52.3°F11.3°C 47.3°F8.5°C 83% 12.1 mph SSE19.5 kmh SSE 15.2 mph24.5 kmh 29.60 in1002.4 mb 0.01 in0.3 mm 0.00 in0.0 mm 0.01 in0.3 mm
12:46 AM 52.5°F11.4°C 47.5°F8.6°C 83% 9.8 mph S15.8 kmh S 14.5 mph23.3 kmh 29.60 in1002.4 mb 0.01 in0.3 mm 0.00 in0.0 mm 0.01 in0.3 mm
12:48 AM 52.5°F11.4°C 47.5°F8.6°C 83% 9.8 mph SSE15.8 kmh SSE 13.0 mph20.9 kmh 29.61 in1002.7 mb 0.01 in0.3 mm 0.00 in0.0 mm 0.01 in0.3 mm
12:50 AM 52.5°F11.4°C 47.5°F8.6°C 83% 6.0 mph S9.7 kmh S 8.3 mph13.4 kmh 29.61 in1002.7 mb 0.01 in0.3 mm 0.00 in0.0 mm 0.01 in0.3 mm
12:53 AM 52.5°F11.4°C 47.5°F8.6°C 83% 4.5 mph S7.2 kmh S 5.4 mph8.7 kmh 29.61 in1002.7 mb 0.01 in0.3 mm 0.00 in0.0 mm 0.01 in0.3 mm
12:55 AM 52.5°F11.4°C 47.5°F8.6°C 83% 4.5 mph SSE7.2 kmh SSE 5.4 mph8.7 kmh 29.61 in1002.7 mb 0.00 in0.0 mm 0.00 in0.0 mm 0.01 in0.3 mm
12:57 AM 52.3°F11.3°C 47.3°F8.5°C 83% 4.5 mph E7.2 kmh E 6.0 mph9.7 kmh 29.61 in1002.7 mb 0.00 in0.0 mm 0.00 in0.0 mm 0.01 in0.3 mm
12:59 AM 52.3°F11.3°C 47.3°F8.5°C 83% 3.1 mph SW5.0 kmh SW 3.8 mph6.1 kmh 29.61 in1002.7 mb 0.00 in0.0 mm 0.00 in0.0 mm 0.01 in0.3 mm
01:01 AM 52.3°F11.3°C 47.3°F8.5°C 83% 7.6 mph SSW12.2 kmh SSW 10.7 mph17.2 kmh 29.60 in1002.4 mb 0.00 in0.0 mm 0.00 in0.0 mm 0.01 in0.3 mm
01:03 AM 52.3°F11.3°C 47.3°F8.5°C 83% 3.8 mph S6.1 kmh S 5.4 mph8.7 kmh 29.61 in1002.7 mb 0.00 in0.0 mm 0.00 in0.0 mm 0.01 in0.3 mm
01:05 AM 52.3°F11.3°C 47.3°F8.5°C 83% 5.4 mph SE8.7 kmh SE 7.6 mph12.2 kmh 29.60 in1002.4 mb 0.00 in0.0 mm 0.00 in0.0 mm 0.01 in0.3 mm
01:07 AM 52.3°F11.3°C 47.3°F8.5°C 83% 6.0 mph ENE9.7 kmh ENE 6.9 mph11.1 kmh 29.60 in1002.4 mb 0.00 in0.0 mm 0.00 in0.0 mm 0.01 in0.3 mm
01:09 AM 52.3°F11.3°C 47.0°F8.3°C 82% 9.8 mph E15.8 kmh E 11.4 mph18.3 kmh 29.60 in1002.4 mb 0.00 in0.0 mm 0.00 in0.0 mm 0.01 in0.3 mm
01:11 AM 52.3°F11.3°C 47.0°F8.3°C 82% 9.2 mph ENE14.8 kmh ENE 10.7 mph17.2 kmh 29.60 in1002.4 mb 0.00 in0.0 mm 0.00 in0.0 mm 0.01 in0.3 mm
01:13 AM 52.3°F11.3°C 47.0°F8.3°C 82% 6.9 mph SE11.1 kmh SE 9.2 mph14.8 kmh 29.61 in1002.7 mb 0.00 in0.0 mm 0.00 in0.0 mm 0.01 in0.3 mm
01:15 AM 52.3°F11.3°C 47.0°F8.3°C 82% 7.6 mph SE12.2 kmh SE 10.7 mph17.2 kmh 29.60 in1002.4 mb 0.00 in0.0 mm 0.00 in0.0 mm 0.01 in0.3 mm
01:17 AM 52.3°F11.3°C 46.7°F8.2°C 81% 6.0 mph S9.7 kmh S 7.6 mph12.2 kmh 29.60 in1002.4 mb 0.00 in0.0 mm 0.00 in0.0 mm 0.01 in0.3 mm
01:19 AM 52.3°F11.3°C 46.7°F8.2°C 81% 9.2 mph SE14.8 kmh SE 10.7 mph17.2 kmh 29.59 in1002.0 mb 0.00 in0.0 mm 0.00 in0.0 mm 0.01 in0.3 mm
01:21 AM 52.3°F11.3°C 46.7°F8.2°C 81% 8.3 mph S13.4 kmh S 9.2 mph14.8 kmh 29.59 in1002.0 mb 0.00 in0.0 mm 0.00 in0.0 mm 0.01 in0.3 mm
01:23 AM 52.3°F11.3°C 46.7°F8.2°C 81% 11.4 mph SE18.3 kmh SE 13.0 mph20.9 kmh 29.59 in1002.0 mb 0.00 in0.0 mm 0.00 in0.0 mm 0.01 in0.3 mm
01:25 AM 52.3°F11.3°C 46.7°F8.2°C 81% 8.3 mph SE13.4 kmh SE 15.2 mph24.5 kmh 29.59 in1002.0 mb 0.00 in0.0 mm 0.00 in0.0 mm 0.01 in0.3 mm
01:27 AM 52.3°F11.3°C 46.7°F8.2°C 81% 10.7 mph SSE17.2 kmh SSE 13.0 mph20.9 kmh 29.59 in1002.0 mb 0.00 in0.0 mm 0.00 in0.0 mm 0.01 in0.3 mm
01:29 AM 52.3°F11.3°C 46.7°F8.2°C 81% 6.9 mph S11.1 kmh S 10.7 mph17.2 kmh 29.59 in1002.0 mb 0.00 in0.0 mm 0.00 in0.0 mm 0.01 in0.3 mm
01:31 AM 52.3°F11.3°C 46.7°F8.2°C 81% 9.8 mph SE15.8 kmh SE 13.7 mph22.0 kmh 29.59 in1002.0 mb 0.00 in0.0 mm 0.00 in0.0 mm 0.01 in0.3 mm
01:33 AM 52.3°F11.3°C 46.7°F8.2°C 81% 13.7 mph S22.0 kmh S 15.9 mph25.6 kmh 29.59 in1002.0 mb 0.00 in0.0 mm 0.00 in0.0 mm 0.01 in0.3 mm
01:35 AM 52.3°F11.3°C 46.7°F8.2°C 81% 9.8 mph SSE15.8 kmh SSE 10.7 mph17.2 kmh 29.59 in1002.0 mb 0.00 in0.0 mm 0.00 in0.0 mm 0.01 in0.3 mm
01:37 AM 52.3°F11.3°C 46.7°F8.2°C 81% 7.6 mph S12.2 kmh S 10.7 mph17.2 kmh 29.59 in1002.0 mb 0.00 in0.0 mm 0.00 in0.0 mm 0.01 in0.3 mm
01:39 AM 52.3°F11.3°C 47.0°F8.3°C 82% 8.3 mph S13.4 kmh S 10.7 mph17.2 kmh 29.58 in1001.7 mb 0.00 in0.0 mm 0.00 in0.0 mm 0.01 in0.3 mm
01:41 AM 52.3°F11.3°C 47.0°F8.3°C 82% 6.0 mph SE9.7 kmh SE 9.8 mph15.8 kmh 29.59 in1002.0 mb 0.00 in0.0 mm 0.00 in0.0 mm 0.01 in0.3 mm
01:43 AM 52.3°F11.3°C 47.0°F8.3°C 82% 13.0 mph S20.9 kmh S 19.0 mph30.6 kmh 29.59 in1002.0 mb 0.00 in0.0 mm 0.00 in0.0 mm 0.01 in0.3 mm
01:45 AM 52.3°F11.3°C 47.0°F8.3°C 82% 12.1 mph S19.5 kmh S 15.9 mph25.6 kmh 29.58 in1001.7 mb 0.00 in0.0 mm 0.00 in0.0 mm 0.01 in0.3 mm
01:47 AM 52.3°F11.3°C 47.0°F8.3°C 82% 11.4 mph S18.3 kmh S 15.9 mph25.6 kmh 29.59 in1002.0 mb 0.00 in0.0 mm 0.00 in0.0 mm 0.01 in0.3 mm
01:49 AM 52.3°F11.3°C 47.0°F8.3°C 82% 10.7 mph SE17.2 kmh SE 15.2 mph24.5 kmh 29.59 in1002.0 mb 0.00 in0.0 mm 0.00 in0.0 mm 0.01 in0.3 mm
01:51 AM 52.2°F11.2°C 46.8°F8.2°C 82% 16.8 mph SSE27.0 kmh SSE 26.0 mph41.8 kmh 29.59 in1002.0 mb 0.00 in0.0 mm 0.00 in0.0 mm 0.01 in0.3 mm
01:53 AM 52.2°F11.2°C 46.8°F8.2°C 82% 13.0 mph S20.9 kmh S 19.7 mph31.7 kmh 29.58 in1001.7 mb 0.00 in0.0 mm 0.00 in0.0 mm 0.01 in0.3 mm
01:55 AM 52.2°F11.2°C 46.8°F8.2°C 82% 12.1 mph SE19.5 kmh SE 14.5 mph23.3 kmh 29.58 in1001.7 mb 0.00 in0.0 mm 0.00 in0.0 mm 0.01 in0.3 mm
01:57 AM 52.2°F11.2°C 46.8°F8.2°C 82% 18.3 mph S29.5 kmh S 26.6 mph42.8 kmh 29.58 in1001.7 mb 0.00 in0.0 mm 0.00 in0.0 mm 0.01 in0.3 mm
02:01 AM 52.2°F11.2°C 47.2°F8.4°C 83% 14.5 mph S23.3 kmh S 19.7 mph31.7 kmh 29.58 in1001.7 mb 0.00 in0.0 mm 0.00 in0.0 mm 0.01 in0.3 mm
02:03 AM 52.2°F11.2°C 47.2°F8.4°C 83% 14.5 mph S23.3 kmh S 19.7 mph31.7 kmh 29.57 in1001.4 mb 0.00 in0.0 mm 0.00 in0.0 mm 0.01 in0.3 mm
02:06 AM 52.2°F11.2°C 47.2°F8.4°C 83% 9.8 mph SE15.8 kmh SE 12.1 mph19.5 kmh 29.58 in1001.7 mb 0.00 in0.0 mm 0.00 in0.0 mm 0.01 in0.3 mm
02:11 AM 52.2°F11.2°C 47.2°F8.4°C 83% 12.1 mph S19.5 kmh S 15.9 mph25.6 kmh 29.58 in1001.7 mb 0.01 in0.3 mm 0.14 in3.6 mm 0.01 in0.3 mm
02:12 AM 52.2°F11.2°C 47.2°F8.4°C 83% 9.8 mph SE15.8 kmh SE 11.4 mph18.3 kmh 29.58 in1001.7 mb 0.01 in0.3 mm 0.00 in0.0 mm 0.01 in0.3 mm
02:14 AM 52.2°F11.2°C 47.5°F8.6°C 84% 8.3 mph SSE13.4 kmh SSE 12.1 mph19.5 kmh 29.57 in1001.4 mb 0.01 in0.3 mm 0.00 in0.0 mm 0.01 in0.3 mm
02:16 AM 52.0°F11.1°C 47.3°F8.5°C 84% 13.7 mph S22.0 kmh S 19.0 mph30.6 kmh 29.59 in1002.0 mb 0.01 in0.3 mm 0.00 in0.0 mm 0.01 in0.3 mm
02:18 AM 52.0°F11.1°C 47.3°F8.5°C 84% 16.8 mph SE27.0 kmh SE 22.2 mph35.7 kmh 29.59 in1002.0 mb 0.01 in0.3 mm 0.00 in0.0 mm 0.01 in0.3 mm
02:20 AM 52.0°F11.1°C 47.3°F8.5°C 84% 16.8 mph S27.0 kmh S 22.2 mph35.7 kmh 29.58 in1001.7 mb 0.01 in0.3 mm 0.00 in0.0 mm 0.01 in0.3 mm
02:22 AM 52.0°F11.1°C 47.6°F8.7°C 85% 10.7 mph S17.2 kmh S 13.7 mph22.0 kmh 29.58 in1001.7 mb 0.01 in0.3 mm 0.00 in0.0 mm 0.01 in0.3 mm
02:24 AM 52.0°F11.1°C 47.6°F8.7°C 85% 7.6 mph S12.2 kmh S 12.1 mph19.5 kmh 29.58 in1001.7 mb 0.01 in0.3 mm 0.00 in0.0 mm 0.01 in0.3 mm
02:26 AM 52.0°F11.1°C 47.6°F8.7°C 85% 13.0 mph SE20.9 kmh SE 17.5 mph28.2 kmh 29.59 in1002.0 mb 0.01 in0.3 mm 0.00 in0.0 mm 0.01 in0.3 mm
02:28 AM 52.0°F11.1°C 47.6°F8.7°C 85% 11.4 mph SE18.3 kmh SE 15.9 mph25.6 kmh 29.58 in1001.7 mb 0.01 in0.3 mm 0.00 in0.0 mm 0.01 in0.3 mm
02:30 AM 52.0°F11.1°C 47.6°F8.7°C 85% 15.9 mph SSE25.6 kmh SSE 23.5 mph37.8 kmh 29.58 in1001.7 mb 0.02 in0.5 mm 0.35 in8.9 mm 0.02 in0.5 mm
02:32 AM 52.0°F11.1°C 47.6°F8.7°C 85% 15.9 mph S25.6 kmh S 21.3 mph34.3 kmh 29.57 in1001.4 mb 0.02 in0.5 mm 0.00 in0.0 mm 0.02 in0.5 mm
02:34 AM 52.0°F11.1°C 47.6°F8.7°C 85% 13.7 mph S22.0 kmh S 18.3 mph29.5 kmh 29.58 in1001.7 mb 0.02 in0.5 mm 0.00 in0.0 mm 0.02 in0.5 mm
02:36 AM 52.0°F11.1°C 47.9°F8.8°C 86% 12.1 mph SE19.5 kmh SE 15.2 mph24.5 kmh 29.58 in1001.7 mb 0.02 in0.5 mm 0.00 in0.0 mm 0.02 in0.5 mm
02:38 AM 52.0°F11.1°C 47.9°F8.8°C 86% 10.7 mph S17.2 kmh S 13.7 mph22.0 kmh 29.58 in1001.7 mb 0.02 in0.5 mm 0.00 in0.0 mm 0.02 in0.5 mm
02:40 AM 52.0°F11.1°C 47.9°F8.8°C 86% 12.1 mph S19.5 kmh S 15.9 mph25.6 kmh 29.58 in1001.7 mb 0.02 in0.5 mm 0.00 in0.0 mm 0.02 in0.5 mm
02:42 AM 52.0°F11.1°C 47.9°F8.8°C 86% 12.1 mph SE19.5 kmh SE 15.2 mph24.5 kmh 29.58 in1001.7 mb 0.02 in0.5 mm 0.00 in0.0 mm 0.02 in0.5 mm
02:44 AM 52.0°F11.1°C 47.9°F8.8°C 86% 11.4 mph S18.3 kmh S 15.9 mph25.6 kmh 29.59 in1002.0 mb 0.02 in0.5 mm 0.00 in0.0 mm 0.02 in0.5 mm
02:46 AM 52.0°F11.1°C 47.9°F8.8°C 86% 13.0 mph S20.9 kmh S 18.3 mph29.5 kmh 29.58 in1001.7 mb 0.02 in0.5 mm 0.00 in0.0 mm 0.02 in0.5 mm
02:48 AM 52.0°F11.1°C 47.9°F8.8°C 86% 13.0 mph S20.9 kmh S 15.9 mph25.6 kmh 29.58 in1001.7 mb 0.02 in0.5 mm 0.00 in0.0 mm 0.02 in0.5 mm
02:50 AM 52.0°F11.1°C 47.9°F8.8°C 86% 6.9 mph SE11.1 kmh SE 9.8 mph15.8 kmh 29.57 in1001.4 mb 0.02 in0.5 mm 0.00 in0.0 mm 0.02 in0.5 mm
02:52 AM 52.0°F11.1°C 47.9°F8.8°C 86% 13.7 mph SE22.0 kmh SE 18.3 mph29.5 kmh 29.57 in1001.4 mb 0.02 in0.5 mm 0.00 in0.0 mm 0.02 in0.5 mm
02:54 AM 52.0°F11.1°C 47.9°F8.8°C 86% 10.7 mph SE17.2 kmh SE 13.7 mph22.0 kmh 29.58 in1001.7 mb 0.02 in0.5 mm 0.00 in0.0 mm 0.02 in0.5 mm
02:56 AM 52.0°F11.1°C 48.2°F9.0°C 87% 7.6 mph S12.2 kmh S 13.0 mph20.9 kmh 29.57 in1001.4 mb 0.02 in0.5 mm 0.00 in0.0 mm 0.02 in0.5 mm
02:58 AM 52.0°F11.1°C 48.2°F9.0°C 87% 9.8 mph S15.8 kmh S 12.1 mph19.5 kmh 29.57 in1001.4 mb 0.04 in1.0 mm 0.35 in8.9 mm 0.04 in1.0 mm
03:00 AM 52.0°F11.1°C 48.2°F9.0°C 87% 14.5 mph S23.3 kmh S 19.7 mph31.7 kmh 29.57 in1001.4 mb 0.04 in1.0 mm 0.00 in0.0 mm 0.04 in1.0 mm
03:02 AM 52.2°F11.2°C 48.4°F9.1°C 87% 13.0 mph S20.9 kmh S 15.2 mph24.5 kmh 29.57 in1001.4 mb 0.04 in1.0 mm 0.00 in0.0 mm 0.04 in1.0 mm
03:04 AM 52.2°F11.2°C 48.4°F9.1°C 87% 13.7 mph SE22.0 kmh SE 19.0 mph30.6 kmh 29.57 in1001.4 mb 0.04 in1.0 mm 0.00 in0.0 mm 0.04 in1.0 mm
03:06 AM 52.2°F11.2°C 48.4°F9.1°C 87% 15.2 mph S24.5 kmh S 18.3 mph29.5 kmh 29.57 in1001.4 mb 0.04 in1.0 mm 0.00 in0.0 mm 0.04 in1.0 mm
03:08 AM 52.2°F11.2°C 48.4°F9.1°C 87% 13.7 mph S22.0 kmh S 17.5 mph28.2 kmh 29.57 in1001.4 mb 0.02 in0.5 mm 0.00 in0.0 mm 0.04 in1.0 mm
03:10 AM 52.2°F11.2°C 48.4°F9.1°C 87% 9.2 mph S14.8 kmh S 11.4 mph18.3 kmh 29.57 in1001.4 mb 0.02 in0.5 mm 0.00 in0.0 mm 0.04 in1.0 mm
03:12 AM 52.2°F11.2°C 48.4°F9.1°C 87% 11.4 mph S18.3 kmh S 13.0 mph20.9 kmh 29.57 in1001.4 mb 0.02 in0.5 mm 0.00 in0.0 mm 0.04 in1.0 mm
03:14 AM 52.0°F11.1°C 48.2°F9.0°C 87% 17.5 mph SW28.2 kmh SW 21.3 mph34.3 kmh 29.57 in1001.4 mb 0.02 in0.5 mm 0.00 in0.0 mm 0.04 in1.0 mm
03:16 AM 52.0°F11.1°C 48.2°F9.0°C 87% 13.0 mph SE20.9 kmh SE 15.2 mph24.5 kmh 29.57 in1001.4 mb 0.02 in0.5 mm 0.00 in0.0 mm 0.04 in1.0 mm
03:18 AM 52.0°F11.1°C 48.2°F9.0°C 87% 10.7 mph S17.2 kmh S 16.8 mph27.0 kmh 29.57 in1001.4 mb 0.02 in0.5 mm 0.00 in0.0 mm 0.04 in1.0 mm
03:20 AM 52.0°F11.1°C 48.2°F9.0°C 87% 9.2 mph S14.8 kmh S 10.7 mph17.2 kmh 29.57 in1001.4 mb 0.02 in0.5 mm 0.00 in0.0 mm 0.04 in1.0 mm
03:22 AM 52.0°F11.1°C 48.2°F9.0°C 87% 9.8 mph S15.8 kmh S 13.7 mph22.0 kmh 29.57 in1001.4 mb 0.02 in0.5 mm 0.00 in0.0 mm 0.04 in1.0 mm
03:24 AM 52.0°F11.1°C 48.2°F9.0°C 87% 12.1 mph S19.5 kmh S 16.8 mph27.0 kmh 29.56 in1001.0 mb 0.02 in0.5 mm 0.00 in0.0 mm 0.04 in1.0 mm
03:26 AM 52.0°F11.1°C 48.2°F9.0°C 87% 10.7 mph SSE17.2 kmh SSE 13.7 mph22.0 kmh 29.57 in1001.4 mb 0.02 in0.5 mm 0.00 in0.0 mm 0.04 in1.0 mm
03:28 AM 52.0°F11.1°C 48.2°F9.0°C 87% 9.2 mph SE14.8 kmh SE 10.7 mph17.2 kmh 29.57 in1001.4 mb 0.01 in0.3 mm 0.00 in0.0 mm 0.04 in1.0 mm
03:30 AM 52.0°F11.1°C 48.2°F9.0°C 87% 13.7 mph S22.0 kmh S 15.9 mph25.6 kmh 29.57 in1001.4 mb 0.01 in0.3 mm 0.00 in0.0 mm 0.04 in1.0 mm
03:32 AM 52.0°F11.1°C 48.2°F9.0°C 87% 13.7 mph S22.0 kmh S 16.8 mph27.0 kmh 29.56 in1001.0 mb 0.01 in0.3 mm 0.00 in0.0 mm 0.04 in1.0 mm
03:34 AM 52.0°F11.1°C 48.2°F9.0°C 87% 12.1 mph SW19.5 kmh SW 15.2 mph24.5 kmh 29.57 in1001.4 mb 0.02 in0.5 mm 0.35 in8.9 mm 0.05 in1.3 mm
03:36 AM 52.0°F11.1°C 48.2°F9.0°C 87% 12.1 mph S19.5 kmh S 15.9 mph25.6 kmh 29.57 in1001.4 mb 0.02 in0.5 mm 0.00 in0.0 mm 0.05 in1.3 mm
03:38 AM 52.0°F11.1°C 48.2°F9.0°C 87% 10.7 mph S17.2 kmh S 15.2 mph24.5 kmh 29.57 in1001.4 mb 0.02 in0.5 mm 0.00 in0.0 mm 0.05 in1.3 mm
03:40 AM 52.0°F11.1°C 48.2°F9.0°C 87% 9.2 mph SW14.8 kmh SW 12.1 mph19.5 kmh 29.56 in1001.0 mb 0.02 in0.5 mm 0.00 in0.0 mm 0.05 in1.3 mm
03:42 AM 52.0°F11.1°C 48.2°F9.0°C 87% 8.3 mph S13.4 kmh S 11.4 mph18.3 kmh 29.56 in1001.0 mb 0.02 in0.5 mm 0.00 in0.0 mm 0.05 in1.3 mm
03:44 AM 52.0°F11.1°C 48.2°F9.0°C 87% 9.2 mph S14.8 kmh S 13.0 mph20.9 kmh 29.56 in1001.0 mb 0.02 in0.5 mm 0.00 in0.0 mm 0.05 in1.3 mm
03:46 AM 52.0°F11.1°C 48.2°F9.0°C 87% 13.7 mph S22.0 kmh S 17.5 mph28.2 kmh 29.56 in1001.0 mb 0.02 in0.5 mm 0.00 in0.0 mm 0.05 in1.3 mm
03:48 AM 52.0°F11.1°C 48.2°F9.0°C 87% 6.0 mph S9.7 kmh S 9.2 mph14.8 kmh 29.57 in1001.4 mb 0.02 in0.5 mm 0.00 in0.0 mm 0.05 in1.3 mm
03:50 AM 52.0°F11.1°C 48.2°F9.0°C 87% 16.8 mph SSE27.0 kmh SSE 20.6 mph33.2 kmh 29.56 in1001.0 mb 0.02 in0.5 mm 0.00 in0.0 mm 0.05 in1.3 mm
03:52 AM 52.0°F11.1°C 48.2°F9.0°C 87% 9.8 mph S15.8 kmh S 13.0 mph20.9 kmh 29.56 in1001.0 mb 0.02 in0.5 mm 0.00 in0.0 mm 0.05 in1.3 mm
03:54 AM 52.0°F11.1°C 48.2°F9.0°C 87% 12.1 mph S19.5 kmh S 14.5 mph23.3 kmh 29.56 in1001.0 mb 0.02 in0.5 mm 0.00 in0.0 mm 0.05 in1.3 mm
03:56 AM 52.0°F11.1°C 48.2°F9.0°C 87% 13.0 mph S20.9 kmh S 16.8 mph27.0 kmh 29.56 in1001.0 mb 0.02 in0.5 mm 0.00 in0.0 mm 0.05 in1.3 mm
03:58 AM 52.0°F11.1°C 48.2°F9.0°C 87% 11.4 mph S18.3 kmh S 14.5 mph23.3 kmh 29.56 in1001.0 mb 0.01 in0.3 mm 0.00 in0.0 mm 0.05 in1.3 mm
04:00 AM 52.0°F11.1°C 48.2°F9.0°C 87% 9.8 mph S15.8 kmh S 12.1 mph19.5 kmh 29.56 in1001.0 mb 0.01 in0.3 mm 0.00 in0.0 mm 0.05 in1.3 mm
04:02 AM 52.0°F11.1°C 48.2°F9.0°C 87% 11.4 mph S18.3 kmh S 14.5 mph23.3 kmh 29.56 in1001.0 mb 0.01 in0.3 mm 0.00 in0.0 mm 0.05 in1.3 mm
04:04 AM 52.2°F11.2°C 48.4°F9.1°C 87% 15.2 mph SW24.5 kmh SW 19.0 mph30.6 kmh 29.56 in1001.0 mb 0.01 in0.3 mm 0.00 in0.0 mm 0.05 in1.3 mm
04:06 AM 52.2°F11.2°C 48.4°F9.1°C 87% 10.7 mph S17.2 kmh S 15.9 mph25.6 kmh 29.56 in1001.0 mb 0.01 in0.3 mm 0.00 in0.0 mm 0.05 in1.3 mm
04:08 AM 52.2°F11.2°C 48.4°F9.1°C 87% 12.1 mph S19.5 kmh S 18.3 mph29.5 kmh 29.56 in1001.0 mb 0.01 in0.3 mm 0.00 in0.0 mm 0.05 in1.3 mm
04:10 AM 52.2°F11.2°C 48.4°F9.1°C 87% 13.7 mph S22.0 kmh S 17.5 mph28.2 kmh 29.57 in1001.4 mb 0.01 in0.3 mm 0.00 in0.0 mm 0.05 in1.3 mm
04:12 AM 52.2°F11.2°C 48.4°F9.1°C 87% 13.7 mph S22.0 kmh S 20.6 mph33.2 kmh 29.57 in1001.4 mb 0.01 in0.3 mm 0.00 in0.0 mm 0.05 in1.3 mm
04:14 AM 52.2°F11.2°C 48.4°F9.1°C 87% 8.3 mph S13.4 kmh S 9.8 mph15.8 kmh 29.56 in1001.0 mb 0.01 in0.3 mm 0.00 in0.0 mm 0.05 in1.3 mm
04:16 AM 52.2°F11.2°C 48.4°F9.1°C 87% 11.4 mph S18.3 kmh S 13.0 mph20.9 kmh 29.56 in1001.0 mb 0.01 in0.3 mm 0.00 in0.0 mm 0.05 in1.3 mm
04:18 AM 52.2°F11.2°C 48.4°F9.1°C 87% 14.5 mph S23.3 kmh S 19.0 mph30.6 kmh 29.56 in1001.0 mb 0.01 in0.3 mm 0.00 in0.0 mm 0.05 in1.3 mm
04:20 AM 52.2°F11.2°C 48.4°F9.1°C 87% 13.0 mph S20.9 kmh S 15.9 mph25.6 kmh 29.57 in1001.4 mb 0.01 in0.3 mm 0.00 in0.0 mm 0.05 in1.3 mm
04:22 AM 52.2°F11.2°C 48.4°F9.1°C 87% 9.2 mph S14.8 kmh S 11.4 mph18.3 kmh 29.56 in1001.0 mb 0.01 in0.3 mm 0.00 in0.0 mm 0.05 in1.3 mm
04:25 AM 52.2°F11.2°C 48.4°F9.1°C 87% 9.2 mph S14.8 kmh S 13.7 mph22.0 kmh 29.56 in1001.0 mb 0.01 in0.3 mm 0.00 in0.0 mm 0.05 in1.3 mm
04:26 AM 52.2°F11.2°C 48.4°F9.1°C 87% 11.4 mph S18.3 kmh S 15.9 mph25.6 kmh 29.57 in1001.4 mb 0.01 in0.3 mm 0.00 in0.0 mm 0.05 in1.3 mm
04:28 AM 52.2°F11.2°C 48.4°F9.1°C 87% 8.3 mph SW13.4 kmh SW 10.7 mph17.2 kmh 29.57 in1001.4 mb 0.01 in0.3 mm 0.00 in0.0 mm 0.05 in1.3 mm
04:30 AM 52.2°F11.2°C 48.4°F9.1°C 87% 11.4 mph S18.3 kmh S 14.5 mph23.3 kmh 29.57 in1001.4 mb 0.01 in0.3 mm 0.00 in0.0 mm 0.05 in1.3 mm
04:32 AM 52.2°F11.2°C 48.1°F8.9°C 86% 13.0 mph S20.9 kmh S 17.5 mph28.2 kmh 29.58 in1001.7 mb 0.01 in0.3 mm 0.00 in0.0 mm 0.05 in1.3 mm
04:34 AM 52.2°F11.2°C 48.1°F8.9°C 86% 6.0 mph S9.7 kmh S 7.6 mph12.2 kmh 29.57 in1001.4 mb 0.00 in0.0 mm 0.00 in0.0 mm 0.05 in1.3 mm
04:36 AM 52.2°F11.2°C 48.1°F8.9°C 86% 9.2 mph SE14.8 kmh SE 12.1 mph19.5 kmh 29.57 in1001.4 mb 0.00 in0.0 mm 0.00 in0.0 mm 0.05 in1.3 mm
04:38 AM 52.2°F11.2°C 48.1°F8.9°C 86% 15.2 mph S24.5 kmh S 17.5 mph28.2 kmh 29.57 in1001.4 mb 0.00 in0.0 mm 0.00 in0.0 mm 0.05 in1.3 mm
04:40 AM 52.2°F11.2°C 48.1°F8.9°C 86% 13.7 mph S22.0 kmh S 15.2 mph24.5 kmh 29.58 in1001.7 mb 0.00 in0.0 mm 0.00 in0.0 mm 0.05 in1.3 mm
04:42 AM 52.3°F11.3°C 48.3°F9.1°C 86% 17.5 mph S28.2 kmh S 19.0 mph30.6 kmh 29.57 in1001.4 mb 0.00 in0.0 mm 0.00 in0.0 mm 0.05 in1.3 mm
04:45 AM 52.3°F11.3°C 48.3°F9.1°C 86% 9.8 mph SW15.8 kmh SW 12.1 mph19.5 kmh 29.57 in1001.4 mb 0.00 in0.0 mm 0.00 in0.0 mm 0.05 in1.3 mm
04:47 AM 52.3°F11.3°C 48.3°F9.1°C 86% 8.3 mph S13.4 kmh S 9.2 mph14.8 kmh 29.56 in1001.0 mb 0.00 in0.0 mm 0.00 in0.0 mm 0.05 in1.3 mm
04:49 AM 52.3°F11.3°C 48.3°F9.1°C 86% 9.8 mph S15.8 kmh S 13.7 mph22.0 kmh 29.56 in1001.0 mb 0.00 in0.0 mm 0.00 in0.0 mm 0.05 in1.3 mm
04:51 AM 52.3°F11.3°C 48.3°F9.1°C 86% 11.4 mph SSE18.3 kmh SSE 13.0 mph20.9 kmh 29.57 in1001.4 mb 0.00 in0.0 mm 0.00 in0.0 mm 0.05 in1.3 mm
04:53 AM 52.3°F11.3°C 48.3°F9.1°C 86% 11.4 mph SE18.3 kmh SE 17.5 mph28.2 kmh 29.57 in1001.4 mb 0.00 in0.0 mm 0.00 in0.0 mm 0.05 in1.3 mm
04:55 AM 52.3°F11.3°C 48.3°F9.1°C 86% 6.9 mph S11.1 kmh S 8.3 mph13.4 kmh 29.57 in1001.4 mb 0.00 in0.0 mm 0.00 in0.0 mm 0.05 in1.3 mm
04:57 AM 52.3°F11.3°C 48.3°F9.1°C 86% 7.6 mph S12.2 kmh S 10.7 mph17.2 kmh 29.56 in1001.0 mb 0.00 in0.0 mm 0.00 in0.0 mm 0.05 in1.3 mm
04:59 AM 52.3°F11.3°C 48.3°F9.1°C 86% 8.3 mph S13.4 kmh S 14.5 mph23.3 kmh 29.57 in1001.4 mb 0.00 in0.0 mm 0.00 in0.0 mm 0.05 in1.3 mm
05:01 AM 52.3°F11.3°C 48.3°F9.1°C 86% 15.9 mph S25.6 kmh S 21.3 mph34.3 kmh 29.56 in1001.0 mb 0.00 in0.0 mm 0.00 in0.0 mm 0.05 in1.3 mm
05:03 AM 52.3°F11.3°C 48.3°F9.1°C 86% 9.2 mph S14.8 kmh S 13.7 mph22.0 kmh 29.58 in1001.7 mb 0.00 in0.0 mm 0.00 in0.0 mm 0.05 in1.3 mm
05:05 AM 52.3°F11.3°C 48.3°F9.1°C 86% 7.6 mph S12.2 kmh S 9.8 mph15.8 kmh 29.57 in1001.4 mb 0.00 in0.0 mm 0.00 in0.0 mm 0.05 in1.3 mm
05:07 AM 52.5°F11.4°C 48.5°F9.2°C 86% 8.3 mph SSE13.4 kmh SSE 11.4 mph18.3 kmh 29.58 in1001.7 mb 0.00 in0.0 mm 0.00 in0.0 mm 0.05 in1.3 mm
05:09 AM 52.5°F11.4°C 48.5°F9.2°C 86% 6.0 mph S9.7 kmh S 9.2 mph14.8 kmh 29.57 in1001.4 mb 0.00 in0.0 mm 0.00 in0.0 mm 0.05 in1.3 mm
05:11 AM 52.5°F11.4°C 48.1°F8.9°C 85% 7.6 mph S12.2 kmh S 9.2 mph14.8 kmh 29.58 in1001.7 mb 0.00 in0.0 mm 0.00 in0.0 mm 0.05 in1.3 mm
05:13 AM 52.5°F11.4°C 48.1°F8.9°C 85% 8.3 mph S13.4 kmh S 10.7 mph17.2 kmh 29.58 in1001.7 mb 0.00 in0.0 mm 0.00 in0.0 mm 0.05 in1.3 mm
05:15 AM 52.5°F11.4°C 48.1°F8.9°C 85% 6.9 mph S11.1 kmh S 9.2 mph14.8 kmh 29.57 in1001.4 mb 0.00 in0.0 mm 0.00 in0.0 mm 0.05 in1.3 mm
05:17 AM 52.7°F11.5°C 48.3°F9.1°C 85% 13.0 mph S20.9 kmh S 15.9 mph25.6 kmh 29.58 in1001.7 mb 0.00 in0.0 mm 0.00 in0.0 mm 0.05 in1.3 mm
05:19 AM 52.7°F11.5°C 48.3°F9.1°C 85% 8.3 mph SE13.4 kmh SE 10.7 mph17.2 kmh 29.57 in1001.4 mb 0.00 in0.0 mm 0.00 in0.0 mm 0.05 in1.3 mm
05:21 AM 52.7°F11.5°C 48.3°F9.1°C 85% 7.6 mph S12.2 kmh S 11.4 mph18.3 kmh 29.58 in1001.7 mb 0.00 in0.0 mm 0.00 in0.0 mm 0.05 in1.3 mm
05:23 AM 52.7°F11.5°C 48.3°F9.1°C 85% 7.6 mph S12.2 kmh S 9.8 mph15.8 kmh 29.58 in1001.7 mb 0.00 in0.0 mm 0.00 in0.0 mm 0.05 in1.3 mm
05:25 AM 52.7°F11.5°C 48.3°F9.1°C 85% 7.6 mph S12.2 kmh S 10.7 mph17.2 kmh 29.58 in1001.7 mb 0.00 in0.0 mm 0.00 in0.0 mm 0.05 in1.3 mm
05:27 AM 52.7°F11.5°C 48.3°F9.1°C 85% 7.6 mph SE12.2 kmh SE 9.8 mph15.8 kmh 29.57 in1001.4 mb 0.00 in0.0 mm 0.00 in0.0 mm 0.05 in1.3 mm
05:29 AM 52.7°F11.5°C 48.3°F9.1°C 85% 10.7 mph S17.2 kmh S 13.0 mph20.9 kmh 29.58 in1001.7 mb 0.00 in0.0 mm 0.00 in0.0 mm 0.05 in1.3 mm
05:31 AM 52.7°F11.5°C 48.0°F8.9°C 84% 7.6 mph S12.2 kmh S 9.8 mph15.8 kmh 29.58 in1001.7 mb 0.00 in0.0 mm 0.00 in0.0 mm 0.05 in1.3 mm
05:33 AM 52.7°F11.5°C 48.0°F8.9°C 84% 9.2 mph S14.8 kmh S 11.4 mph18.3 kmh 29.58 in1001.7 mb 0.00 in0.0 mm 0.00 in0.0 mm 0.05 in1.3 mm
05:35 AM 52.7°F11.5°C 48.0°F8.9°C 84% 8.3 mph S13.4 kmh S 9.8 mph15.8 kmh 29.58 in1001.7 mb 0.00 in0.0 mm 0.00 in0.0 mm 0.05 in1.3 mm
05:37 AM 52.7°F11.5°C 48.0°F8.9°C 84% 6.0 mph S9.7 kmh S 8.3 mph13.4 kmh 29.57 in1001.4 mb 0.00 in0.0 mm 0.00 in0.0 mm 0.05 in1.3 mm
05:39 AM 52.5°F11.4°C 47.8°F8.8°C 84% 9.8 mph S15.8 kmh S 14.5 mph23.3 kmh 29.57 in1001.4 mb 0.00 in0.0 mm 0.00 in0.0 mm 0.05 in1.3 mm
05:41 AM 52.5°F11.4°C 47.5°F8.6°C 83% 6.9 mph S11.1 kmh S 9.8 mph15.8 kmh 29.58 in1001.7 mb 0.00 in0.0 mm 0.00 in0.0 mm 0.05 in1.3 mm
05:43 AM 52.5°F11.4°C 47.5°F8.6°C 83% 4.5 mph S7.2 kmh S 5.4 mph8.7 kmh 29.57 in1001.4 mb 0.00 in0.0 mm 0.00 in0.0 mm 0.05 in1.3 mm
05:45 AM 52.3°F11.3°C 47.3°F8.5°C 83% 6.0 mph SW9.7 kmh SW 9.2 mph14.8 kmh 29.58 in1001.7 mb 0.00 in0.0 mm 0.00 in0.0 mm 0.05 in1.3 mm
05:47 AM 52.3°F11.3°C 47.3°F8.5°C 83% 9.8 mph S15.8 kmh S 12.1 mph19.5 kmh 29.58 in1001.7 mb 0.00 in0.0 mm 0.00 in0.0 mm 0.05 in1.3 mm
05:49 AM 52.3°F11.3°C 47.3°F8.5°C 83% 9.8 mph S15.8 kmh S 15.2 mph24.5 kmh 29.58 in1001.7 mb 0.00 in0.0 mm 0.00 in0.0 mm 0.05 in1.3 mm
05:51 AM 52.3°F11.3°C 47.3°F8.5°C 83% 6.9 mph SE11.1 kmh SE 8.3 mph13.4 kmh 29.57 in1001.4 mb 0.00 in0.0 mm 0.00 in0.0 mm 0.05 in1.3 mm
05:53 AM 52.3°F11.3°C 47.3°F8.5°C 83% 6.9 mph S11.1 kmh S 10.7 mph17.2 kmh 29.57 in1001.4 mb 0.00 in0.0 mm 0.00 in0.0 mm 0.05 in1.3 mm
05:55 AM 52.3°F11.3°C 47.3°F8.5°C 83% 10.7 mph SE17.2 kmh SE 12.1 mph19.5 kmh 29.57 in1001.4 mb 0.00 in0.0 mm 0.00 in0.0 mm 0.05 in1.3 mm
05:57 AM 52.3°F11.3°C 47.3°F8.5°C 83% 11.4 mph SW18.3 kmh SW 15.2 mph24.5 kmh 29.58 in1001.7 mb 0.00 in0.0 mm 0.00 in0.0 mm 0.05 in1.3 mm
05:59 AM 52.3°F11.3°C 47.3°F8.5°C 83% 6.9 mph S11.1 kmh S 7.6 mph12.2 kmh 29.58 in1001.7 mb 0.00 in0.0 mm 0.00 in0.0 mm 0.05 in1.3 mm
06:01 AM 52.3°F11.3°C 47.3°F8.5°C 83% 8.3 mph S13.4 kmh S 9.8 mph15.8 kmh 29.58 in1001.7 mb 0.00 in0.0 mm 0.00 in0.0 mm 0.05 in1.3 mm
06:03 AM 52.3°F11.3°C 47.3°F8.5°C 83% 9.2 mph S14.8 kmh S 13.0 mph20.9 kmh 29.57 in1001.4 mb 0.00 in0.0 mm 0.00 in0.0 mm 0.05 in1.3 mm
06:05 AM 52.5°F11.4°C 47.5°F8.6°C 83% 10.7 mph SW17.2 kmh SW 16.8 mph27.0 kmh 29.58 in1001.7 mb 0.00 in0.0 mm 0.00 in0.0 mm 0.05 in1.3 mm
06:07 AM 52.5°F11.4°C 47.5°F8.6°C 83% 6.0 mph S9.7 kmh S 8.3 mph13.4 kmh 29.58 in1001.7 mb 0.00 in0.0 mm 0.00 in0.0 mm 0.05 in1.3 mm
06:09 AM 52.7°F11.5°C 47.7°F8.7°C 83% 6.9 mph SSW11.1 kmh SSW 8.3 mph13.4 kmh 29.58 in1001.7 mb 0.00 in0.0 mm 0.00 in0.0 mm 0.05 in1.3 mm
06:11 AM 52.7°F11.5°C 47.7°F8.7°C 83% 9.8 mph S15.8 kmh S 13.7 mph22.0 kmh 29.59 in1002.0 mb 0.00 in0.0 mm 0.00 in0.0 mm 0.05 in1.3 mm
06:13 AM 52.9°F11.6°C 47.9°F8.8°C 83% 9.2 mph S14.8 kmh S 12.1 mph19.5 kmh 29.58 in1001.7 mb 0.00 in0.0 mm 0.00 in0.0 mm 0.05 in1.3 mm
06:15 AM 52.9°F11.6°C 47.9°F8.8°C 83% 12.1 mph SW19.5 kmh SW 14.5 mph23.3 kmh 29.58 in1001.7 mb 0.00 in0.0 mm 0.00 in0.0 mm 0.05 in1.3 mm
06:17 AM 52.9°F11.6°C 47.9°F8.8°C 83% 5.4 mph S8.7 kmh S 6.9 mph11.1 kmh 29.59 in1002.0 mb 0.00 in0.0 mm 0.00 in0.0 mm 0.05 in1.3 mm
06:19 AM 52.9°F11.6°C 47.9°F8.8°C 83% 4.5 mph SSW7.2 kmh SSW 6.0 mph9.7 kmh 29.59 in1002.0 mb 0.00 in0.0 mm 0.00 in0.0 mm 0.05 in1.3 mm
06:21 AM 52.9°F11.6°C 47.9°F8.8°C 83% 8.3 mph SSW13.4 kmh SSW 10.7 mph17.2 kmh 29.59 in1002.0 mb 0.00 in0.0 mm 0.00 in0.0 mm 0.05 in1.3 mm
06:23 AM 52.9°F11.6°C 47.9°F8.8°C 83% 6.0 mph S9.7 kmh S 9.2 mph14.8 kmh 29.59 in1002.0 mb 0.00 in0.0 mm 0.00 in0.0 mm 0.05 in1.3 mm
06:25 AM 52.9°F11.6°C 47.9°F8.8°C 83% 7.6 mph S12.2 kmh S 9.2 mph14.8 kmh 29.58 in1001.7 mb 0.00 in0.0 mm 0.00 in0.0 mm 0.05 in1.3 mm
06:27 AM 52.7°F11.5°C 47.7°F8.7°C 83% 8.3 mph SSW13.4 kmh SSW 12.1 mph19.5 kmh 29.58 in1001.7 mb 0.00 in0.0 mm 0.00 in0.0 mm 0.05 in1.3 mm
06:29 AM 52.7°F11.5°C 47.7°F8.7°C 83% 7.6 mph S12.2 kmh S 11.4 mph18.3 kmh 29.59 in1002.0 mb 0.00 in0.0 mm 0.00 in0.0 mm 0.05 in1.3 mm
06:31 AM 52.7°F11.5°C 47.7°F8.7°C 83% 5.4 mph SW8.7 kmh SW 6.9 mph11.1 kmh 29.59 in1002.0 mb 0.00 in0.0 mm 0.00 in0.0 mm 0.05 in1.3 mm
06:33 AM 52.5°F11.4°C 47.5°F8.6°C 83% 6.9 mph SSW11.1 kmh SSW 8.3 mph13.4 kmh 29.59 in1002.0 mb 0.00 in0.0 mm 0.00 in0.0 mm 0.05 in1.3 mm
06:35 AM 52.5°F11.4°C 47.5°F8.6°C 83% 6.0 mph WSW9.7 kmh WSW 6.9 mph11.1 kmh 29.59 in1002.0 mb 0.00 in0.0 mm 0.00 in0.0 mm 0.05 in1.3 mm
06:37 AM 52.5°F11.4°C 47.5°F8.6°C 83% 6.9 mph S11.1 kmh S 9.2 mph14.8 kmh 29.59 in1002.0 mb 0.00 in0.0 mm 0.00 in0.0 mm 0.05 in1.3 mm
06:39 AM 52.5°F11.4°C 47.5°F8.6°C 83% 9.2 mph SSW14.8 kmh SSW 11.4 mph18.3 kmh 29.60 in1002.4 mb 0.00 in0.0 mm 0.00 in0.0 mm 0.05 in1.3 mm
06:41 AM 52.5°F11.4°C 47.2°F8.4°C 82% 5.4 mph SW8.7 kmh SW 6.9 mph11.1 kmh 29.60 in1002.4 mb 0.00 in0.0 mm 0.00 in0.0 mm 0.05 in1.3 mm
06:43 AM 52.5°F11.4°C 47.2°F8.4°C 82% 3.8 mph S6.1 kmh S 5.4 mph8.7 kmh 29.60 in1002.4 mb 0.00 in0.0 mm 0.00 in0.0 mm 0.05 in1.3 mm
06:45 AM 52.5°F11.4°C 47.2°F8.4°C 82% 6.9 mph W11.1 kmh W 7.6 mph12.2 kmh 29.60 in1002.4 mb 0.00 in0.0 mm 0.00 in0.0 mm 0.05 in1.3 mm
06:47 AM 52.7°F11.5°C 47.4°F8.6°C 82% 4.5 mph SSW7.2 kmh SSW 6.0 mph9.7 kmh 29.60 in1002.4 mb 0.00 in0.0 mm 0.00 in0.0 mm 0.05 in1.3 mm
06:49 AM 52.7°F11.5°C 47.4°F8.6°C 82% 3.1 mph SW5.0 kmh SW 5.4 mph8.7 kmh 29.59 in1002.0 mb 0.00 in0.0 mm 0.00 in0.0 mm 0.05 in1.3 mm
06:51 AM 52.7°F11.5°C 47.4°F8.6°C 82% 5.4 mph S8.7 kmh S 6.9 mph11.1 kmh 29.59 in1002.0 mb 0.00 in0.0 mm 0.00 in0.0 mm 0.05 in1.3 mm
06:53 AM 52.5°F11.4°C 47.2°F8.4°C 82% 5.4 mph S8.7 kmh S 7.6 mph12.2 kmh 29.60 in1002.4 mb 0.00 in0.0 mm 0.00 in0.0 mm 0.05 in1.3 mm
06:55 AM 52.5°F11.4°C 46.9°F8.3°C 81% 6.0 mph SW9.7 kmh SW 8.3 mph13.4 kmh 29.60 in1002.4 mb 0.00 in0.0 mm 0.00 in0.0 mm 0.05 in1.3 mm
06:57 AM 52.3°F11.3°C 46.7°F8.2°C 81% 4.5 mph SSW7.2 kmh SSW 6.0 mph9.7 kmh 29.60 in1002.4 mb 0.00 in0.0 mm 0.00 in0.0 mm 0.05 in1.3 mm
06:59 AM 52.3°F11.3°C 46.7°F8.2°C 81% 3.8 mph SE6.1 kmh SE 6.9 mph11.1 kmh 29.60 in1002.4 mb 0.00 in0.0 mm 0.00 in0.0 mm 0.05 in1.3 mm
07:01 AM 52.3°F11.3°C 46.7°F8.2°C 81% 6.0 mph SE9.7 kmh SE 7.6 mph12.2 kmh 29.60 in1002.4 mb 0.00 in0.0 mm 0.00 in0.0 mm 0.05 in1.3 mm
07:03 AM 52.2°F11.2°C 46.5°F8.1°C 81% 4.5 mph S7.2 kmh S 5.4 mph8.7 kmh 29.60 in1002.4 mb 0.00 in0.0 mm 0.00 in0.0 mm 0.05 in1.3 mm
07:05 AM 52.2°F11.2°C 46.5°F8.1°C 81% 8.3 mph S13.4 kmh S 10.7 mph17.2 kmh 29.60 in1002.4 mb 0.00 in0.0 mm 0.00 in0.0 mm 0.05 in1.3 mm
07:07 AM 52.2°F11.2°C 46.5°F8.1°C 81% 5.4 mph S8.7 kmh S 6.9 mph11.1 kmh 29.60 in1002.4 mb 0.00 in0.0 mm 0.00 in0.0 mm 0.05 in1.3 mm
07:09 AM 52.2°F11.2°C 46.5°F8.1°C 81% 7.6 mph S12.2 kmh S 9.8 mph15.8 kmh 29.60 in1002.4 mb 0.00 in0.0 mm 0.00 in0.0 mm 0.05 in1.3 mm
07:11 AM 52.2°F11.2°C 46.5°F8.1°C 81% 4.5 mph SSE7.2 kmh SSE 6.9 mph11.1 kmh 29.60 in1002.4 mb 0.00 in0.0 mm 0.00 in0.0 mm 0.05 in1.3 mm
07:13 AM 52.0°F11.1°C 46.3°F7.9°C 81% 9.2 mph S14.8 kmh S 11.4 mph18.3 kmh 29.60 in1002.4 mb 0.00 in0.0 mm 0.00 in0.0 mm 0.05 in1.3 mm
07:15 AM 52.0°F11.1°C 46.3°F7.9°C 81% 6.9 mph SE11.1 kmh SE 9.2 mph14.8 kmh 29.60 in1002.4 mb 0.00 in0.0 mm 0.00 in0.0 mm 0.05 in1.3 mm
07:17 AM 52.0°F11.1°C 46.3°F7.9°C 81% 6.9 mph S11.1 kmh S 9.2 mph14.8 kmh 29.60 in1002.4 mb 0.00 in0.0 mm 0.00 in0.0 mm 0.05 in1.3 mm
07:19 AM 52.0°F11.1°C 46.3°F7.9°C 81% 4.5 mph SW7.2 kmh SW 6.0 mph9.7 kmh 29.60 in1002.4 mb 0.00 in0.0 mm 0.00 in0.0 mm 0.05 in1.3 mm
07:21 AM 52.0°F11.1°C 46.3°F7.9°C 81% 6.9 mph SSW11.1 kmh SSW 9.2 mph14.8 kmh 29.59 in1002.0 mb 0.00 in0.0 mm 0.00 in0.0 mm 0.05 in1.3 mm
07:23 AM 52.0°F11.1°C 46.3°F7.9°C 81% 3.1 mph S5.0 kmh S 4.5 mph7.2 kmh 29.60 in1002.4 mb 0.00 in0.0 mm 0.00 in0.0 mm 0.05 in1.3 mm
07:25 AM 52.0°F11.1°C 46.3°F7.9°C 81% 8.3 mph S13.4 kmh S 10.7 mph17.2 kmh 29.61 in1002.7 mb 0.00 in0.0 mm 0.00 in0.0 mm 0.05 in1.3 mm
07:27 AM 51.8°F11.0°C 45.8°F7.7°C 80% 5.4 mph E8.7 kmh E 7.6 mph12.2 kmh 29.61 in1002.7 mb 0.00 in0.0 mm 0.00 in0.0 mm 0.05 in1.3 mm
07:29 AM 51.8°F11.0°C 45.8°F7.7°C 80% 8.3 mph S13.4 kmh S 9.8 mph15.8 kmh 29.60 in1002.4 mb 0.00 in0.0 mm 0.00 in0.0 mm 0.05 in1.3 mm
07:31 AM 51.8°F11.0°C 45.8°F7.7°C 80% 5.4 mph SSE8.7 kmh SSE 6.9 mph11.1 kmh 29.60 in1002.4 mb 0.00 in0.0 mm 0.00 in0.0 mm 0.05 in1.3 mm
07:33 AM 51.8°F11.0°C 45.8°F7.7°C 80% 8.3 mph SSE13.4 kmh SSE 12.1 mph19.5 kmh 29.60 in1002.4 mb 0.00 in0.0 mm 0.00 in0.0 mm 0.05 in1.3 mm
07:35 AM 51.8°F11.0°C 45.8°F7.7°C 80% 4.5 mph S7.2 kmh S 5.4 mph8.7 kmh 29.61 in1002.7 mb 0.00 in0.0 mm 0.00 in0.0 mm 0.05 in1.3 mm
07:38 AM 51.8°F11.0°C 45.8°F7.7°C 80% 4.5 mph S7.2 kmh S 7.6 mph12.2 kmh 29.61 in1002.7 mb 0.00 in0.0 mm 0.00 in0.0 mm 0.05 in1.3 mm
07:40 AM 51.8°F11.0°C 45.8°F7.7°C 80% 9.2 mph S14.8 kmh S 12.1 mph19.5 kmh 29.61 in1002.7 mb 0.00 in0.0 mm 0.00 in0.0 mm 0.05 in1.3 mm
07:42 AM 51.8°F11.0°C 45.8°F7.7°C 80% 5.4 mph SE8.7 kmh SE 6.9 mph11.1 kmh 29.61 in1002.7 mb 0.00 in0.0 mm 0.00 in0.0 mm 0.05 in1.3 mm
07:44 AM 51.8°F11.0°C 45.8°F7.7°C 80% 2.2 mph S3.5 kmh S 4.5 mph7.2 kmh 29.62 in1003.0 mb 0.00 in0.0 mm 0.00 in0.0 mm 0.05 in1.3 mm
07:46 AM 51.8°F11.0°C 45.8°F7.7°C 80% 4.5 mph S7.2 kmh S 6.0 mph9.7 kmh 29.62 in1003.0 mb 0.00 in0.0 mm 0.00 in0.0 mm 0.05 in1.3 mm
07:48 AM 51.8°F11.0°C 45.8°F7.7°C 80% 2.2 mph S3.5 kmh S 3.8 mph6.1 kmh 29.62 in1003.0 mb 0.00 in0.0 mm 0.00 in0.0 mm 0.05 in1.3 mm
07:50 AM 51.8°F11.0°C 45.8°F7.7°C 80% 3.8 mph S6.1 kmh S 4.5 mph7.2 kmh 29.61 in1002.7 mb 0.00 in0.0 mm 0.00 in0.0 mm 0.05 in1.3 mm
07:52 AM 51.8°F11.0°C 45.8°F7.7°C 80% 5.4 mph S8.7 kmh S 6.0 mph9.7 kmh 29.62 in1003.0 mb 0.00 in0.0 mm 0.00 in0.0 mm 0.05 in1.3 mm
07:54 AM 51.8°F11.0°C 45.8°F7.7°C 80% 6.9 mph S11.1 kmh S 9.2 mph14.8 kmh 29.62 in1003.0 mb 0.00 in0.0 mm 0.00 in0.0 mm 0.05 in1.3 mm
07:56 AM 51.8°F11.0°C 45.8°F7.7°C 80% 1.6 mph S2.6 kmh S 3.1 mph5.0 kmh 29.63 in1003.4 mb 0.00 in0.0 mm 0.00 in0.0 mm 0.05 in1.3 mm
07:58 AM 51.8°F11.0°C 45.5°F7.5°C 79% 3.1 mph S5.0 kmh S 5.4 mph8.7 kmh 29.62 in1003.0 mb 0.00 in0.0 mm 0.00 in0.0 mm 0.05 in1.3 mm
08:00 AM 51.8°F11.0°C 45.5°F7.5°C 79% 4.5 mph SSE7.2 kmh SSE 6.0 mph9.7 kmh 29.62 in1003.0 mb 0.00 in0.0 mm 0.00 in0.0 mm 0.05 in1.3 mm
08:02 AM 51.8°F11.0°C 45.5°F7.5°C 79% 4.5 mph SSE7.2 kmh SSE 6.0 mph9.7 kmh 29.63 in1003.4 mb 0.00 in0.0 mm 0.00 in0.0 mm 0.05 in1.3 mm
08:04 AM 51.8°F11.0°C 45.5°F7.5°C 79% 4.5 mph SSE7.2 kmh SSE 6.0 mph9.7 kmh 29.63 in1003.4 mb 0.00 in0.0 mm 0.00 in0.0 mm 0.05 in1.3 mm
08:06 AM 51.8°F11.0°C 45.5°F7.5°C 79% 5.4 mph SE8.7 kmh SE 8.3 mph13.4 kmh 29.62 in1003.0 mb 0.00 in0.0 mm 0.00 in0.0 mm 0.05 in1.3 mm
08:08 AM 51.8°F11.0°C 45.5°F7.5°C 79% 3.1 mph E5.0 kmh E 4.5 mph7.2 kmh 29.62 in1003.0 mb 0.00 in0.0 mm 0.00 in0.0 mm 0.05 in1.3 mm
08:10 AM 51.8°F11.0°C 45.2°F7.3°C 78% 8.3 mph S13.4 kmh S 9.2 mph14.8 kmh 29.62 in1003.0 mb 0.00 in0.0 mm 0.00 in0.0 mm 0.05 in1.3 mm
08:12 AM 51.8°F11.0°C 45.2°F7.3°C 78% 2.2 mph SE3.5 kmh SE 3.1 mph5.0 kmh 29.63 in1003.4 mb 0.00 in0.0 mm 0.00 in0.0 mm 0.05 in1.3 mm
08:14 AM 52.0°F11.1°C 45.3°F7.4°C 78% 2.2 mph SE3.5 kmh SE 3.1 mph5.0 kmh 29.63 in1003.4 mb 0.00 in0.0 mm 0.00 in0.0 mm 0.05 in1.3 mm
08:16 AM 52.0°F11.1°C 45.3°F7.4°C 78% 5.4 mph E8.7 kmh E 7.6 mph12.2 kmh 29.63 in1003.4 mb 0.00 in0.0 mm 0.00 in0.0 mm 0.05 in1.3 mm
08:18 AM 51.8°F11.0°C 44.8°F7.1°C 77% 3.8 mph SE6.1 kmh SE 4.5 mph7.2 kmh 29.63 in1003.4 mb 0.00 in0.0 mm 0.00 in0.0 mm 0.05 in1.3 mm
08:20 AM 51.6°F10.9°C 44.3°F6.8°C 76% 5.4 mph E8.7 kmh E 6.9 mph11.1 kmh 29.63 in1003.4 mb 0.00 in0.0 mm 0.00 in0.0 mm 0.05 in1.3 mm
08:22 AM 51.1°F10.6°C 43.4°F6.3°C 75% 7.6 mph E12.2 kmh E 9.8 mph15.8 kmh 29.63 in1003.4 mb 0.00 in0.0 mm 0.00 in0.0 mm 0.05 in1.3 mm
08:24 AM 50.7°F10.4°C 43.1°F6.2°C 75% 7.6 mph E12.2 kmh E 9.2 mph14.8 kmh 29.63 in1003.4 mb 0.00 in0.0 mm 0.00 in0.0 mm 0.05 in1.3 mm
08:26 AM 50.2°F10.1°C 42.2°F5.7°C 74% 9.2 mph E14.8 kmh E 9.8 mph15.8 kmh 29.63 in1003.4 mb 0.00 in0.0 mm 0.00 in0.0 mm 0.05 in1.3 mm
08:28 AM 50.0°F10.0°C 42.0°F5.6°C 74% 9.2 mph ENE14.8 kmh ENE 9.8 mph15.8 kmh 29.63 in1003.4 mb 0.00 in0.0 mm 0.00 in0.0 mm 0.05 in1.3 mm
08:30 AM 49.6°F9.8°C 42.0°F5.6°C 75% 8.3 mph SE13.4 kmh SE 9.2 mph14.8 kmh 29.63 in1003.4 mb 0.00 in0.0 mm 0.00 in0.0 mm 0.05 in1.3 mm
08:32 AM 49.5°F9.7°C 42.2°F5.7°C 76% 6.9 mph ENE11.1 kmh ENE 7.6 mph12.2 kmh 29.63 in1003.4 mb 0.00 in0.0 mm 0.00 in0.0 mm 0.05 in1.3 mm
08:34 AM 49.3°F9.6°C 42.0°F5.6°C 76% 6.0 mph SE9.7 kmh SE 6.9 mph11.1 kmh 29.63 in1003.4 mb 0.00 in0.0 mm 0.00 in0.0 mm 0.05 in1.3 mm
08:36 AM 49.3°F9.6°C 42.4°F5.8°C 77% 6.0 mph SE9.7 kmh SE 6.9 mph11.1 kmh 29.64 in1003.7 mb 0.00 in0.0 mm 0.00 in0.0 mm 0.05 in1.3 mm
08:38 AM 49.3°F9.6°C 42.7°F5.9°C 78% 5.4 mph SE8.7 kmh SE 6.0 mph9.7 kmh 29.63 in1003.4 mb 0.00 in0.0 mm 0.00 in0.0 mm 0.05 in1.3 mm
08:40 AM 49.3°F9.6°C 43.1°F6.2°C 79% 4.5 mph SE7.2 kmh SE 5.4 mph8.7 kmh 29.63 in1003.4 mb 0.00 in0.0 mm 0.00 in0.0 mm 0.05 in1.3 mm
08:42 AM 49.5°F9.7°C 43.6°F6.4°C 80% 5.4 mph SE8.7 kmh SE 6.0 mph9.7 kmh 29.63 in1003.4 mb 0.00 in0.0 mm 0.00 in0.0 mm 0.05 in1.3 mm
08:44 AM 49.6°F9.8°C 43.7°F6.5°C 80% 4.5 mph SE7.2 kmh SE 6.0 mph9.7 kmh 29.63 in1003.4 mb 0.00 in0.0 mm 0.00 in0.0 mm 0.05 in1.3 mm
08:46 AM 49.6°F9.8°C 43.7°F6.5°C 80% 4.5 mph SE7.2 kmh SE 5.4 mph8.7 kmh 29.63 in1003.4 mb 0.00 in0.0 mm 0.00 in0.0 mm 0.05 in1.3 mm
08:48 AM 49.8°F9.9°C 43.9°F6.6°C 80% 3.8 mph SE6.1 kmh SE 5.4 mph8.7 kmh 29.63 in1003.4 mb 0.00 in0.0 mm 0.00 in0.0 mm 0.05 in1.3 mm
08:50 AM 49.8°F9.9°C 44.2°F6.8°C 81% 4.5 mph SE7.2 kmh SE 5.4 mph8.7 kmh 29.63 in1003.4 mb 0.00 in0.0 mm 0.00 in0.0 mm 0.05 in1.3 mm
08:52 AM 50.0°F10.0°C 44.4°F6.9°C 81% 3.8 mph SE6.1 kmh SE 4.5 mph7.2 kmh 29.63 in1003.4 mb 0.00 in0.0 mm 0.00 in0.0 mm 0.05 in1.3 mm
08:54 AM 50.0°F10.0°C 44.4°F6.9°C 81% 3.1 mph SE5.0 kmh SE 4.5 mph7.2 kmh 29.63 in1003.4 mb 0.00 in0.0 mm 0.00 in0.0 mm 0.05 in1.3 mm
08:56 AM 50.0°F10.0°C 44.4°F6.9°C 81% 3.1 mph SSE5.0 kmh SSE 3.8 mph6.1 kmh 29.63 in1003.4 mb 0.00 in0.0 mm 0.00 in0.0 mm 0.05 in1.3 mm
08:58 AM 50.2°F10.1°C 44.6°F7.0°C 81% 3.1 mph S5.0 kmh S 3.8 mph6.1 kmh 29.63 in1003.4 mb 0.00 in0.0 mm 0.00 in0.0 mm 0.05 in1.3 mm
09:00 AM 50.2°F10.1°C 44.6°F7.0°C 81% 2.2 mph SE3.5 kmh SE 2.2 mph3.5 kmh 29.63 in1003.4 mb 0.00 in0.0 mm 0.00 in0.0 mm 0.05 in1.3 mm
09:02 AM 50.4°F10.2°C 44.8°F7.1°C 81% 3.1 mph SE5.0 kmh SE 3.8 mph6.1 kmh 29.63 in1003.4 mb 0.00 in0.0 mm 0.00 in0.0 mm 0.05 in1.3 mm
09:04 AM 50.4°F10.2°C 44.8°F7.1°C 81% 2.2 mph S3.5 kmh S 3.1 mph5.0 kmh 29.63 in1003.4 mb 0.00 in0.0 mm 0.00 in0.0 mm 0.05 in1.3 mm
09:06 AM 50.4°F10.2°C 44.8°F7.1°C 81% 1.6 mph SE2.6 kmh SE 1.6 mph2.6 kmh 29.63 in1003.4 mb 0.00 in0.0 mm 0.00 in0.0 mm 0.05 in1.3 mm
09:08 AM 50.5°F10.3°C 44.9°F7.2°C 81% 2.2 mph SE3.5 kmh SE 3.1 mph5.0 kmh 29.62 in1003.0 mb 0.00 in0.0 mm 0.00 in0.0 mm 0.05 in1.3 mm
09:10 AM 50.5°F10.3°C 44.9°F7.2°C 81% 2.2 mph SE3.5 kmh SE 3.8 mph6.1 kmh 29.64 in1003.7 mb 0.00 in0.0 mm 0.00 in0.0 mm 0.05 in1.3 mm
09:12 AM 50.5°F10.3°C 44.9°F7.2°C 81% 1.6 mph SE2.6 kmh SE 2.2 mph3.5 kmh 29.63 in1003.4 mb 0.00 in0.0 mm 0.00 in0.0 mm 0.05 in1.3 mm
09:14 AM 50.7°F10.4°C 45.4°F7.4°C 82% 0.7 mph S1.1 kmh S 1.6 mph2.6 kmh 29.63 in1003.4 mb 0.00 in0.0 mm 0.00 in0.0 mm 0.05 in1.3 mm
09:16 AM 50.7°F10.4°C 45.4°F7.4°C 82% 0.7 mph S1.1 kmh S 1.6 mph2.6 kmh 29.64 in1003.7 mb 0.00 in0.0 mm 0.00 in0.0 mm 0.05 in1.3 mm
09:18 AM 50.7°F10.4°C 45.4°F7.4°C 82% 0.7 mph S1.1 kmh S 1.6 mph2.6 kmh 29.64 in1003.7 mb 0.00 in0.0 mm 0.00 in0.0 mm 0.05 in1.3 mm
09:20 AM 50.9°F10.5°C 45.6°F7.6°C 82% 1.6 mph S2.6 kmh S 2.2 mph3.5 kmh 29.63 in1003.4 mb 0.00 in0.0 mm 0.00 in0.0 mm 0.05 in1.3 mm
09:22 AM 50.9°F10.5°C 45.3°F7.4°C 81% 1.6 mph S2.6 kmh S 2.2 mph3.5 kmh 29.64 in1003.7 mb 0.00 in0.0 mm 0.00 in0.0 mm 0.05 in1.3 mm
09:24 AM 50.9°F10.5°C 45.3°F7.4°C 81% 1.6 mph S2.6 kmh S 2.2 mph3.5 kmh 29.64 in1003.7 mb 0.00 in0.0 mm 0.00 in0.0 mm 0.05 in1.3 mm
09:26 AM 50.9°F10.5°C 45.3°F7.4°C 81% 3.8 mph SSE6.1 kmh SSE 4.5 mph7.2 kmh 29.64 in1003.7 mb 0.00 in0.0 mm 0.00 in0.0 mm 0.05 in1.3 mm
09:28 AM 50.9°F10.5°C 45.3°F7.4°C 81% 3.1 mph SE5.0 kmh SE 4.5 mph7.2 kmh 29.64 in1003.7 mb 0.00 in0.0 mm 0.00 in0.0 mm 0.05 in1.3 mm
09:30 AM 50.7°F10.4°C 45.1°F7.3°C 81% 4.5 mph S7.2 kmh S 6.0 mph9.7 kmh 29.65 in1004.1 mb 0.00 in0.0 mm 0.00 in0.0 mm 0.05 in1.3 mm
09:32 AM 50.7°F10.4°C 45.1°F7.3°C 81% 2.2 mph SE3.5 kmh SE 4.5 mph7.2 kmh 29.64 in1003.7 mb 0.01 in0.3 mm 0.35 in8.9 mm 0.06 in1.5 mm
09:34 AM 50.7°F10.4°C 45.1°F7.3°C 81% 5.4 mph SE8.7 kmh SE 6.0 mph9.7 kmh 29.65 in1004.1 mb 0.01 in0.3 mm 0.00 in0.0 mm 0.06 in1.5 mm
09:36 AM 50.9°F10.5°C 45.3°F7.4°C 81% 4.5 mph SSE7.2 kmh SSE 5.4 mph8.7 kmh 29.65 in1004.1 mb 0.01 in0.3 mm 0.00 in0.0 mm 0.06 in1.5 mm
09:38 AM 50.9°F10.5°C 45.3°F7.4°C 81% 4.5 mph S7.2 kmh S 6.0 mph9.7 kmh 29.65 in1004.1 mb 0.01 in0.3 mm 0.00 in0.0 mm 0.06 in1.5 mm
09:40 AM 50.9°F10.5°C 45.6°F7.6°C 82% 2.2 mph S3.5 kmh S 3.8 mph6.1 kmh 29.65 in1004.1 mb 0.01 in0.3 mm 0.00 in0.0 mm 0.06 in1.5 mm
09:42 AM 50.7°F10.4°C 45.4°F7.4°C 82% 2.2 mph SE3.5 kmh SE 3.8 mph6.1 kmh 29.65 in1004.1 mb 0.02 in0.5 mm 0.35 in8.9 mm 0.07 in1.8 mm
09:44 AM 50.7°F10.4°C 45.4°F7.4°C 82% 3.8 mph SE6.1 kmh SE 5.4 mph8.7 kmh 29.65 in1004.1 mb 0.02 in0.5 mm 0.00 in0.0 mm 0.07 in1.8 mm
09:46 AM 50.7°F10.4°C 45.4°F7.4°C 82% 5.4 mph SE8.7 kmh SE 6.0 mph9.7 kmh 29.65 in1004.1 mb 0.04 in1.0 mm 0.35 in8.9 mm 0.08 in2.0 mm
09:48 AM 50.7°F10.4°C 45.4°F7.4°C 82% 3.1 mph S5.0 kmh S 4.5 mph7.2 kmh 29.65 in1004.1 mb 0.04 in1.0 mm 0.00 in0.0 mm 0.08 in2.0 mm
09:50 AM 50.7°F10.4°C 45.8°F7.7°C 83% 2.2 mph SE3.5 kmh SE 3.1 mph5.0 kmh 29.65 in1004.1 mb 0.04 in1.0 mm 0.00 in0.0 mm 0.08 in2.0 mm
09:52 AM 50.7°F10.4°C 45.8°F7.7°C 83% 3.1 mph S5.0 kmh S 4.5 mph7.2 kmh 29.66 in1004.4 mb 0.05 in1.3 mm 0.35 in8.9 mm 0.09 in2.3 mm
09:54 AM 50.7°F10.4°C 45.8°F7.7°C 83% 3.1 mph S5.0 kmh S 3.8 mph6.1 kmh 29.66 in1004.4 mb 0.06 in1.5 mm 0.36 in9.1 mm 0.11 in2.8 mm
09:56 AM 50.7°F10.4°C 45.8°F7.7°C 83% 1.6 mph S2.6 kmh S 2.2 mph3.5 kmh 29.65 in1004.1 mb 0.06 in1.5 mm 0.00 in0.0 mm 0.11 in2.8 mm
09:58 AM 50.5°F10.3°C 45.6°F7.6°C 83% 0.7 mph S1.1 kmh S 1.6 mph2.6 kmh 29.65 in1004.1 mb 0.07 in1.8 mm 0.35 in8.9 mm 0.12 in3.0 mm
10:00 AM 50.5°F10.3°C 45.6°F7.6°C 83% 0.7 mph S1.1 kmh S 0.7 mph1.1 kmh 29.66 in1004.4 mb 0.07 in1.8 mm 0.00 in0.0 mm 0.12 in3.0 mm
10:02 AM 50.5°F10.3°C 45.6°F7.6°C 83% 0.7 mph S1.1 kmh S 0.7 mph1.1 kmh 29.65 in1004.1 mb 0.07 in1.8 mm 0.00 in0.0 mm 0.12 in3.0 mm
10:04 AM 50.5°F10.3°C 45.6°F7.6°C 83% 0.7 mph S1.1 kmh S 0.7 mph1.1 kmh 29.65 in1004.1 mb 0.07 in1.8 mm 0.00 in0.0 mm 0.12 in3.0 mm
10:06 AM 50.4°F10.2°C 45.7°F7.6°C 84% Calm Calm -- 29.66 in1004.4 mb 0.09 in2.3 mm 0.71 in18.0 mm 0.14 in3.6 mm
10:08 AM 50.4°F10.2°C 45.7°F7.6°C 84% 0.7 mph S1.1 kmh S 1.6 mph2.6 kmh 29.66 in1004.4 mb 0.09 in2.3 mm 0.00 in0.0 mm 0.14 in3.6 mm
10:10 AM 50.4°F10.2°C 45.7°F7.6°C 84% Calm Calm 0.7 mph1.1 kmh 29.66 in1004.4 mb 0.11 in2.8 mm 0.35 in8.9 mm 0.15 in3.8 mm
10:12 AM 50.4°F10.2°C 45.7°F7.6°C 84% Calm Calm -- 29.66 in1004.4 mb 0.12 in3.0 mm 0.35 in8.9 mm 0.17 in4.3 mm
10:14 AM 50.4°F10.2°C 45.7°F7.6°C 84% Calm Calm -- 29.66 in1004.4 mb 0.12 in3.0 mm 0.00 in0.0 mm 0.17 in4.3 mm
10:16 AM 50.4°F10.2°C 45.7°F7.6°C 84% Calm Calm -- 29.66 in1004.4 mb 0.12 in3.0 mm 0.00 in0.0 mm 0.17 in4.3 mm
10:18 AM 50.2°F10.1°C 45.5°F7.5°C 84% Calm Calm -- 29.66 in1004.4 mb 0.13 in3.3 mm 0.35 in8.9 mm 0.18 in4.6 mm
10:20 AM 50.2°F10.1°C 45.5°F7.5°C 84% 1.6 mph NW2.6 kmh NW 2.2 mph3.5 kmh 29.66 in1004.4 mb 0.13 in3.3 mm 0.00 in0.0 mm 0.18 in4.6 mm
10:22 AM 50.0°F10.0°C 45.7°F7.6°C 85% 3.8 mph NW6.1 kmh NW 3.8 mph6.1 kmh 29.66 in1004.4 mb 0.14 in3.6 mm 0.35 in8.9 mm 0.19 in4.8 mm
10:24 AM 49.8°F9.9°C 45.5°F7.5°C 85% 3.1 mph NW5.0 kmh NW 3.8 mph6.1 kmh 29.66 in1004.4 mb 0.14 in3.6 mm 0.00 in0.0 mm 0.19 in4.8 mm
10:26 AM 49.8°F9.9°C 45.5°F7.5°C 85% 2.2 mph NW3.5 kmh NW 3.1 mph5.0 kmh 29.67 in1004.7 mb 0.14 in3.6 mm 0.00 in0.0 mm 0.19 in4.8 mm
10:28 AM 49.8°F9.9°C 45.5°F7.5°C 85% 2.2 mph NW3.5 kmh NW 3.1 mph5.0 kmh 29.66 in1004.4 mb 0.15 in3.8 mm 0.35 in8.9 mm 0.20 in5.1 mm
10:30 AM 49.8°F9.9°C 45.8°F7.7°C 86% 1.6 mph NW2.6 kmh NW 2.2 mph3.5 kmh 29.67 in1004.7 mb 0.17 in4.3 mm 0.36 in9.1 mm 0.21 in5.3 mm
10:32 AM 49.8°F9.9°C 45.8°F7.7°C 86% 1.6 mph NW2.6 kmh NW 2.2 mph3.5 kmh 29.67 in1004.7 mb 0.15 in3.8 mm 0.00 in0.0 mm 0.21 in5.3 mm
10:34 AM 49.8°F9.9°C 45.8°F7.7°C 86% Calm Calm -- 29.67 in1004.7 mb 0.17 in4.3 mm 0.36 in9.1 mm 0.22 in5.6 mm
10:36 AM 49.8°F9.9°C 45.8°F7.7°C 86% Calm Calm -- 29.67 in1004.7 mb 0.17 in4.3 mm 0.00 in0.0 mm 0.22 in5.6 mm
10:38 AM 49.8°F9.9°C 46.1°F7.8°C 87% Calm Calm -- 29.67 in1004.7 mb 0.18 in4.6 mm 0.35 in8.9 mm 0.24 in6.1 mm
10:40 AM 49.8°F9.9°C 46.1°F7.8°C 87% 1.6 mph NW2.6 kmh NW 2.2 mph3.5 kmh 29.67 in1004.7 mb 0.17 in4.3 mm 0.00 in0.0 mm 0.24 in6.1 mm
10:42 AM 49.3°F9.6°C 45.6°F7.6°C 87% 3.8 mph NW6.1 kmh NW 4.5 mph7.2 kmh 29.66 in1004.4 mb 0.18 in4.6 mm 0.35 in8.9 mm 0.25 in6.4 mm
10:44 AM 49.1°F9.5°C 45.1°F7.3°C 86% 3.8 mph NW6.1 kmh NW 4.5 mph7.2 kmh 29.66 in1004.4 mb 0.18 in4.6 mm 0.00 in0.0 mm 0.25 in6.4 mm
10:46 AM 48.2°F9.0°C 44.2°F6.8°C 86% 3.8 mph 6.1 kmh 4.5 mph7.2 kmh 29.66 in1004.4 mb 0.18 in4.6 mm 0.00 in0.0 mm 0.26 in6.6 mm
10:48 AM 47.8°F8.8°C 43.6°F6.4°C 85% 4.5 mph 7.2 kmh 6.0 mph9.7 kmh 29.67 in1004.7 mb 0.18 in4.6 mm 0.00 in0.0 mm 0.26 in6.6 mm
10:50 AM 47.5°F8.6°C 43.2°F6.2°C 85% 7.6 mph NNE12.2 kmh NNE 8.3 mph13.4 kmh 29.66 in1004.4 mb 0.17 in4.3 mm 0.00 in0.0 mm 0.26 in6.6 mm
10:52 AM 47.3°F8.5°C 42.7°F5.9°C 84% 6.9 mph NE11.1 kmh NE 8.3 mph13.4 kmh 29.67 in1004.7 mb 0.17 in4.3 mm 0.00 in0.0 mm 0.26 in6.6 mm
10:54 AM 46.9°F8.3°C 42.4°F5.8°C 84% 6.0 mph NE9.7 kmh NE 6.9 mph11.1 kmh 29.67 in1004.7 mb 0.15 in3.8 mm 0.00 in0.0 mm 0.26 in6.6 mm
10:56 AM 46.9°F8.3°C 42.4°F5.8°C 84% 6.9 mph NE11.1 kmh NE 7.6 mph12.2 kmh 29.67 in1004.7 mb 0.15 in3.8 mm 0.00 in0.0 mm 0.26 in6.6 mm
10:58 AM 46.8°F8.2°C 42.2°F5.7°C 84% 6.9 mph NE11.1 kmh NE 7.6 mph12.2 kmh 29.66 in1004.4 mb 0.14 in3.6 mm 0.00 in0.0 mm 0.26 in6.6 mm
11:00 AM 46.8°F8.2°C 42.2°F5.7°C 84% 6.9 mph NE11.1 kmh NE 7.6 mph12.2 kmh 29.66 in1004.4 mb 0.15 in3.8 mm 0.01 in0.3 mm 0.27 in6.9 mm
11:02 AM 46.6°F8.1°C 42.0°F5.6°C 84% 6.0 mph NE9.7 kmh NE 7.6 mph12.2 kmh 29.67 in1004.7 mb 0.15 in3.8 mm 0.00 in0.0 mm 0.27 in6.9 mm
11:04 AM 46.6°F8.1°C 42.0°F5.6°C 84% 6.0 mph NE9.7 kmh NE 6.9 mph11.1 kmh 29.67 in1004.7 mb 0.15 in3.8 mm 0.00 in0.0 mm 0.27 in6.9 mm
11:06 AM 46.6°F8.1°C 42.0°F5.6°C 84% 6.9 mph NE11.1 kmh NE 7.6 mph12.2 kmh 29.67 in1004.7 mb 0.13 in3.3 mm 0.00 in0.0 mm 0.27 in6.9 mm
11:08 AM 46.6°F8.1°C 42.0°F5.6°C 84% 4.5 mph E7.2 kmh E 5.4 mph8.7 kmh 29.67 in1004.7 mb 0.13 in3.3 mm 0.00 in0.0 mm 0.28 in7.1 mm
11:10 AM 46.6°F8.1°C 42.0°F5.6°C 84% 2.2 mph E3.5 kmh E 3.1 mph5.0 kmh 29.67 in1004.7 mb 0.13 in3.3 mm 0.00 in0.0 mm 0.28 in7.1 mm
11:12 AM 46.6°F8.1°C 42.0°F5.6°C 84% 3.1 mph SE5.0 kmh SE 3.8 mph6.1 kmh 29.67 in1004.7 mb 0.12 in3.0 mm 0.00 in0.0 mm 0.28 in7.1 mm
11:14 AM 46.6°F8.1°C 42.3°F5.7°C 85% 3.8 mph E6.1 kmh E 4.5 mph7.2 kmh 29.66 in1004.4 mb 0.12 in3.0 mm 0.00 in0.0 mm 0.28 in7.1 mm
11:16 AM 46.6°F8.1°C 42.3°F5.7°C 85% 6.9 mph E11.1 kmh E 7.6 mph12.2 kmh 29.67 in1004.7 mb 0.12 in3.0 mm 0.00 in0.0 mm 0.28 in7.1 mm
11:18 AM 46.4°F8.0°C 42.1°F5.6°C 85% 6.0 mph E9.7 kmh E 6.9 mph11.1 kmh 29.67 in1004.7 mb 0.12 in3.0 mm 0.00 in0.0 mm 0.30 in7.6 mm
11:20 AM 46.4°F8.0°C 42.1°F5.6°C 85% 3.1 mph SE5.0 kmh SE 3.8 mph6.1 kmh 29.67 in1004.7 mb 0.12 in3.0 mm 0.00 in0.0 mm 0.30 in7.6 mm
11:22 AM 46.4°F8.0°C 42.1°F5.6°C 85% 2.2 mph S3.5 kmh S 3.8 mph6.1 kmh 29.67 in1004.7 mb 0.11 in2.8 mm 0.00 in0.0 mm 0.30 in7.6 mm
11:24 AM 46.4°F8.0°C 42.1°F5.6°C 85% 5.4 mph ENE8.7 kmh ENE 6.0 mph9.7 kmh 29.67 in1004.7 mb 0.11 in2.8 mm 0.00 in0.0 mm 0.30 in7.6 mm
11:26 AM 46.6°F8.1°C 42.3°F5.7°C 85% 3.8 mph ENE6.1 kmh ENE 5.4 mph8.7 kmh 29.66 in1004.4 mb 0.09 in2.3 mm 0.00 in0.0 mm 0.30 in7.6 mm
11:28 AM 46.6°F8.1°C 42.3°F5.7°C 85% 4.5 mph E7.2 kmh E 5.4 mph8.7 kmh 29.67 in1004.7 mb 0.09 in2.3 mm 0.00 in0.0 mm 0.30 in7.6 mm
11:30 AM 46.6°F8.1°C 42.6°F5.9°C 86% 4.5 mph E7.2 kmh E 5.4 mph8.7 kmh 29.66 in1004.4 mb 0.09 in2.3 mm 0.00 in0.0 mm 0.31 in7.9 mm
11:32 AM 46.6°F8.1°C 42.6°F5.9°C 86% 4.5 mph E7.2 kmh E 5.4 mph8.7 kmh 29.66 in1004.4 mb 0.09 in2.3 mm 0.00 in0.0 mm 0.31 in7.9 mm
11:34 AM 46.6°F8.1°C 42.6°F5.9°C 86% 4.5 mph E7.2 kmh E 5.4 mph8.7 kmh 29.67 in1004.7 mb 0.08 in2.0 mm 0.00 in0.0 mm 0.31 in7.9 mm
11:36 AM 46.6°F8.1°C 42.6°F5.9°C 86% 4.5 mph E7.2 kmh E 5.4 mph8.7 kmh 29.66 in1004.4 mb 0.07 in1.8 mm 0.00 in0.0 mm 0.31 in7.9 mm
11:38 AM 46.6°F8.1°C 42.6°F5.9°C 86% 3.8 mph E6.1 kmh E 4.5 mph7.2 kmh 29.67 in1004.7 mb 0.07 in1.8 mm 0.00 in0.0 mm 0.31 in7.9 mm
11:40 AM 46.6°F8.1°C 42.6°F5.9°C 86% 6.9 mph ENE11.1 kmh ENE 7.6 mph12.2 kmh 29.66 in1004.4 mb 0.06 in1.5 mm 0.00 in0.0 mm 0.31 in7.9 mm
11:42 AM 46.6°F8.1°C 42.6°F5.9°C 86% 6.0 mph ENE9.7 kmh ENE 6.9 mph11.1 kmh 29.67 in1004.7 mb 0.06 in1.5 mm 0.00 in0.0 mm 0.31 in7.9 mm
11:44 AM 46.6°F8.1°C 42.6°F5.9°C 86% 6.0 mph E9.7 kmh E 6.9 mph11.1 kmh 29.66 in1004.4 mb 0.07 in1.8 mm 0.35 in8.9 mm 0.32 in8.1 mm
11:46 AM 46.6°F8.1°C 42.6°F5.9°C 86% 6.0 mph SE9.7 kmh SE 6.9 mph11.1 kmh 29.66 in1004.4 mb 0.06 in1.5 mm 0.00 in0.0 mm 0.32 in8.1 mm
11:48 AM 46.6°F8.1°C 42.6°F5.9°C 86% 6.9 mph E11.1 kmh E 7.6 mph12.2 kmh 29.66 in1004.4 mb 0.06 in1.5 mm 0.00 in0.0 mm 0.32 in8.1 mm
11:50 AM 46.6°F8.1°C 42.9°F6.1°C 87% 6.0 mph E9.7 kmh E 6.9 mph11.1 kmh 29.66 in1004.4 mb 0.06 in1.5 mm 0.00 in0.0 mm 0.32 in8.1 mm
11:52 AM 46.6°F8.1°C 42.9°F6.1°C 87% 6.0 mph ENE9.7 kmh ENE 6.9 mph11.1 kmh 29.66 in1004.4 mb 0.06 in1.5 mm 0.00 in0.0 mm 0.32 in8.1 mm
11:54 AM 46.6°F8.1°C 42.9°F6.1°C 87% 5.4 mph E8.7 kmh E 6.9 mph11.1 kmh 29.65 in1004.1 mb 0.07 in1.8 mm 0.35 in8.9 mm 0.33 in8.4 mm
11:56 AM 46.6°F8.1°C 42.9°F6.1°C 87% 6.0 mph E9.7 kmh E 6.9 mph11.1 kmh 29.65 in1004.1 mb 0.07 in1.8 mm 0.00 in0.0 mm 0.33 in8.4 mm
11:58 AM 46.6°F8.1°C 42.9°F6.1°C 87% 6.0 mph SE9.7 kmh SE 6.9 mph11.1 kmh 29.65 in1004.1 mb 0.06 in1.5 mm 0.00 in0.0 mm 0.33 in8.4 mm
12:00 PM 46.6°F8.1°C 42.9°F6.1°C 87% 6.0 mph SE9.7 kmh SE 6.9 mph11.1 kmh 29.66 in1004.4 mb 0.06 in1.5 mm 0.00 in0.0 mm 0.33 in8.4 mm
12:02 PM 46.6°F8.1°C 42.9°F6.1°C 87% 6.0 mph SE9.7 kmh SE 6.9 mph11.1 kmh 29.65 in1004.1 mb 0.06 in1.5 mm 0.00 in0.0 mm 0.33 in8.4 mm
12:04 PM 46.6°F8.1°C 42.9°F6.1°C 87% 6.0 mph SE9.7 kmh SE 6.9 mph11.1 kmh 29.65 in1004.1 mb 0.06 in1.5 mm 0.00 in0.0 mm 0.33 in8.4 mm
12:06 PM 46.6°F8.1°C 42.9°F6.1°C 87% 6.0 mph SE9.7 kmh SE 6.9 mph11.1 kmh 29.65 in1004.1 mb 0.05 in1.3 mm 0.00 in0.0 mm 0.33 in8.4 mm
12:08 PM 46.6°F8.1°C 42.9°F6.1°C 87% 6.0 mph SE9.7 kmh SE 6.9 mph11.1 kmh 29.65 in1004.1 mb 0.05 in1.3 mm 0.00 in0.0 mm 0.33 in8.4 mm
12:10 PM 46.8°F8.2°C 43.4°F6.3°C 88% 7.6 mph ENE12.2 kmh ENE 9.2 mph14.8 kmh 29.65 in1004.1 mb 0.06 in1.5 mm 0.36 in9.1 mm 0.34 in8.6 mm
12:12 PM 46.8°F8.2°C 43.4°F6.3°C 88% 6.0 mph ENE9.7 kmh ENE 6.9 mph11.1 kmh 29.65 in1004.1 mb 0.06 in1.5 mm 0.00 in0.0 mm 0.34 in8.6 mm
12:14 PM 46.8°F8.2°C 43.4°F6.3°C 88% 6.9 mph E11.1 kmh E 7.6 mph12.2 kmh 29.65 in1004.1 mb 0.06 in1.5 mm 0.00 in0.0 mm 0.34 in8.6 mm
12:16 PM 46.9°F8.3°C 43.6°F6.4°C 88% 5.4 mph SE8.7 kmh SE 6.9 mph11.1 kmh 29.64 in1003.7 mb 0.07 in1.8 mm 0.35 in8.9 mm 0.35 in8.9 mm
12:18 PM 46.9°F8.3°C 43.6°F6.4°C 88% 4.5 mph SE7.2 kmh SE 6.0 mph9.7 kmh 29.65 in1004.1 mb 0.06 in1.5 mm 0.00 in0.0 mm 0.35 in8.9 mm
12:20 PM 46.9°F8.3°C 43.6°F6.4°C 88% 4.5 mph E7.2 kmh E 6.0 mph9.7 kmh 29.64 in1003.7 mb 0.06 in1.5 mm 0.00 in0.0 mm 0.35 in8.9 mm
12:22 PM 46.9°F8.3°C 43.6°F6.4°C 88% 6.0 mph SE9.7 kmh SE 6.9 mph11.1 kmh 29.65 in1004.1 mb 0.06 in1.5 mm 0.00 in0.0 mm 0.35 in8.9 mm
12:24 PM 46.9°F8.3°C 43.6°F6.4°C 88% 6.0 mph SE9.7 kmh SE 6.9 mph11.1 kmh 29.64 in1003.7 mb 0.06 in1.5 mm 0.00 in0.0 mm 0.35 in8.9 mm
12:26 PM 46.9°F8.3°C 43.6°F6.4°C 88% 4.5 mph SE7.2 kmh SE 5.4 mph8.7 kmh 29.64 in1003.7 mb 0.06 in1.5 mm 0.00 in0.0 mm 0.35 in8.9 mm
12:28 PM 46.9°F8.3°C 43.6°F6.4°C 88% 4.5 mph SE7.2 kmh SE 5.4 mph8.7 kmh 29.64 in1003.7 mb 0.06 in1.5 mm 0.00 in0.0 mm 0.35 in8.9 mm
12:30 PM 46.9°F8.3°C 43.6°F6.4°C 88% 4.5 mph SE7.2 kmh SE 5.4 mph8.7 kmh 29.63 in1003.4 mb 0.05 in1.3 mm 0.00 in0.0 mm 0.35 in8.9 mm
12:32 PM 46.9°F8.3°C 43.6°F6.4°C 88% 4.5 mph E7.2 kmh E 6.0 mph9.7 kmh 29.64 in1003.7 mb 0.05 in1.3 mm 0.00 in0.0 mm 0.35 in8.9 mm
12:34 PM 46.8°F8.2°C 43.4°F6.3°C 88% 5.4 mph SE8.7 kmh SE 6.0 mph9.7 kmh 29.64 in1003.7 mb 0.05 in1.3 mm 0.00 in0.0 mm 0.35 in8.9 mm
12:36 PM 46.8°F8.2°C 43.4°F6.3°C 88% 5.4 mph SE8.7 kmh SE 6.0 mph9.7 kmh 29.64 in1003.7 mb 0.05 in1.3 mm 0.00 in0.0 mm 0.35 in8.9 mm
12:38 PM 46.8°F8.2°C 43.4°F6.3°C 88% 5.4 mph SE8.7 kmh SE 6.0 mph9.7 kmh 29.64 in1003.7 mb 0.05 in1.3 mm 0.00 in0.0 mm 0.35 in8.9 mm
12:41 PM 46.8°F8.2°C 43.7°F6.5°C 89% 6.0 mph SE9.7 kmh SE 7.6 mph12.2 kmh 29.64 in1003.7 mb 0.05 in1.3 mm 0.00 in0.0 mm 0.35 in8.9 mm
12:43 PM 46.9°F8.3°C 43.9°F6.6°C 89% 6.0 mph E9.7 kmh E 7.6 mph12.2 kmh 29.63 in1003.4 mb 0.04 in1.0 mm 0.00 in0.0 mm 0.35 in8.9 mm
12:45 PM 46.9°F8.3°C 43.9°F6.6°C 89% 5.4 mph E8.7 kmh E 6.9 mph11.1 kmh 29.64 in1003.7 mb 0.05 in1.3 mm 0.35 in8.9 mm 0.37 in9.4 mm
12:47 PM 46.8°F8.2°C 43.7°F6.5°C 89% 7.6 mph SE12.2 kmh SE 9.2 mph14.8 kmh 29.63 in1003.4 mb 0.05 in1.3 mm 0.00 in0.0 mm 0.37 in9.4 mm
12:49 PM 46.9°F8.3°C 43.9°F6.6°C 89% 7.6 mph SE12.2 kmh SE 9.2 mph14.8 kmh 29.64 in1003.7 mb 0.05 in1.3 mm 0.00 in0.0 mm 0.37 in9.4 mm
12:51 PM 46.9°F8.3°C 43.9°F6.6°C 89% 9.8 mph SE15.8 kmh SE 11.4 mph18.3 kmh 29.63 in1003.4 mb 0.05 in1.3 mm 0.00 in0.0 mm 0.37 in9.4 mm
12:53 PM 47.1°F8.4°C 44.1°F6.7°C 89% 9.8 mph SE15.8 kmh SE 12.1 mph19.5 kmh 29.63 in1003.4 mb 0.05 in1.3 mm 0.00 in0.0 mm 0.37 in9.4 mm
12:55 PM 47.5°F8.6°C 44.4°F6.9°C 89% 10.7 mph ENE17.2 kmh ENE 11.4 mph18.3 kmh 29.63 in1003.4 mb 0.04 in1.0 mm 0.00 in0.0 mm 0.37 in9.4 mm
12:57 PM 47.7°F8.7°C 44.9°F7.2°C 90% 9.8 mph SE15.8 kmh SE 10.7 mph17.2 kmh 29.63 in1003.4 mb 0.05 in1.3 mm 0.35 in8.9 mm 0.38 in9.7 mm
12:59 PM 47.8°F8.8°C 45.1°F7.3°C 90% 9.2 mph SE14.8 kmh SE 10.7 mph17.2 kmh 29.63 in1003.4 mb 0.05 in1.3 mm 0.00 in0.0 mm 0.38 in9.7 mm
01:01 PM 47.8°F8.8°C 45.1°F7.3°C 90% 9.8 mph SE15.8 kmh SE 10.7 mph17.2 kmh 29.63 in1003.4 mb 0.05 in1.3 mm 0.00 in0.0 mm 0.38 in9.7 mm
01:03 PM 48.0°F8.9°C 45.2°F7.3°C 90% 9.2 mph SE14.8 kmh SE 9.8 mph15.8 kmh 29.63 in1003.4 mb 0.05 in1.3 mm 0.00 in0.0 mm 0.38 in9.7 mm
01:05 PM 48.2°F9.0°C 45.4°F7.4°C 90% 9.2 mph ENE14.8 kmh ENE 10.7 mph17.2 kmh 29.63 in1003.4 mb 0.05 in1.3 mm 0.00 in0.0 mm 0.38 in9.7 mm
01:07 PM 48.0°F8.9°C 45.2°F7.3°C 90% 8.3 mph SE13.4 kmh SE 9.2 mph14.8 kmh 29.64 in1003.7 mb 0.05 in1.3 mm 0.00 in0.0 mm 0.38 in9.7 mm
01:09 PM 47.8°F8.8°C 45.1°F7.3°C 90% 8.3 mph SE13.4 kmh SE 9.8 mph15.8 kmh 29.63 in1003.4 mb 0.04 in1.0 mm 0.00 in0.0 mm 0.38 in9.7 mm
01:11 PM 47.7°F8.7°C 44.9°F7.2°C 90% 7.6 mph ENE12.2 kmh ENE 8.3 mph13.4 kmh 29.63 in1003.4 mb 0.04 in1.0 mm 0.00 in0.0 mm 0.38 in9.7 mm
01:13 PM 47.5°F8.6°C 44.7°F7.1°C 90% 7.6 mph SE12.2 kmh SE 10.7 mph17.2 kmh 29.64 in1003.7 mb 0.04 in1.0 mm 0.00 in0.0 mm 0.38 in9.7 mm
01:15 PM 47.3°F8.5°C 44.5°F6.9°C 90% 8.3 mph SE13.4 kmh SE 9.8 mph15.8 kmh 29.63 in1003.4 mb 0.04 in1.0 mm 0.00 in0.0 mm 0.39 in9.9 mm
01:17 PM 47.3°F8.5°C 44.5°F6.9°C 90% 9.2 mph SE14.8 kmh SE 10.7 mph17.2 kmh 29.63 in1003.4 mb 0.04 in1.0 mm 0.00 in0.0 mm 0.39 in9.9 mm
01:19 PM 47.5°F8.6°C 44.7°F7.1°C 90% 9.2 mph SE14.8 kmh SE 10.7 mph17.2 kmh 29.63 in1003.4 mb 0.04 in1.0 mm 0.00 in0.0 mm 0.39 in9.9 mm
01:21 PM 47.5°F8.6°C 44.7°F7.1°C 90% 9.8 mph SE15.8 kmh SE 10.7 mph17.2 kmh 29.64 in1003.7 mb 0.04 in1.0 mm 0.00 in0.0 mm 0.39 in9.9 mm
01:23 PM 47.7°F8.7°C 44.9°F7.2°C 90% 9.2 mph SE14.8 kmh SE 11.4 mph18.3 kmh 29.63 in1003.4 mb 0.04 in1.0 mm 0.00 in0.0 mm 0.39 in9.9 mm
01:25 PM 47.8°F8.8°C 45.1°F7.3°C 90% 7.6 mph SE12.2 kmh SE 9.8 mph15.8 kmh 29.63 in1003.4 mb 0.04 in1.0 mm 0.00 in0.0 mm 0.39 in9.9 mm
01:27 PM 47.8°F8.8°C 45.1°F7.3°C 90% 6.9 mph SE11.1 kmh SE 8.3 mph13.4 kmh 29.63 in1003.4 mb 0.05 in1.3 mm 0.35 in8.9 mm 0.40 in10.2 mm
01:29 PM 48.0°F8.9°C 45.2°F7.3°C 90% 4.5 mph SE7.2 kmh SE 6.0 mph9.7 kmh 29.63 in1003.4 mb 0.05 in1.3 mm 0.00 in0.0 mm 0.40 in10.2 mm
01:31 PM 48.2°F9.0°C 45.4°F7.4°C 90% 7.6 mph SE12.2 kmh SE 9.2 mph14.8 kmh 29.63 in1003.4 mb 0.05 in1.3 mm 0.00 in0.0 mm 0.40 in10.2 mm
01:33 PM 48.2°F9.0°C 45.4°F7.4°C 90% 6.9 mph SE11.1 kmh SE 7.6 mph12.2 kmh 29.63 in1003.4 mb 0.05 in1.3 mm 0.00 in0.0 mm 0.40 in10.2 mm
01:35 PM 48.2°F9.0°C 45.4°F7.4°C 90% 8.3 mph SE13.4 kmh SE 9.8 mph15.8 kmh 29.63 in1003.4 mb 0.06 in1.5 mm 0.36 in9.1 mm 0.41 in10.4 mm
01:37 PM 48.2°F9.0°C 45.4°F7.4°C 90% 6.0 mph E9.7 kmh E 7.6 mph12.2 kmh 29.63 in1003.4 mb 0.06 in1.5 mm 0.00 in0.0 mm 0.41 in10.4 mm
01:39 PM 48.2°F9.0°C 45.4°F7.4°C 90% 9.2 mph SE14.8 kmh SE 10.7 mph17.2 kmh 29.63 in1003.4 mb 0.06 in1.5 mm 0.00 in0.0 mm 0.41 in10.4 mm
01:41 PM 48.2°F9.0°C 45.4°F7.4°C 90% 9.2 mph SE14.8 kmh SE 10.7 mph17.2 kmh 29.63 in1003.4 mb 0.06 in1.5 mm 0.00 in0.0 mm 0.41 in10.4 mm
01:43 PM 48.2°F9.0°C 45.4°F7.4°C 90% 7.6 mph SE12.2 kmh SE 9.8 mph15.8 kmh 29.64 in1003.7 mb 0.05 in1.3 mm 0.00 in0.0 mm 0.41 in10.4 mm
01:45 PM 48.2°F9.0°C 45.4°F7.4°C 90% 10.7 mph SE17.2 kmh SE 11.4 mph18.3 kmh 29.63 in1003.4 mb 0.05 in1.3 mm 0.00 in0.0 mm 0.41 in10.4 mm
01:47 PM 48.2°F9.0°C 45.4°F7.4°C 90% 8.3 mph SE13.4 kmh SE 9.8 mph15.8 kmh 29.63 in1003.4 mb 0.05 in1.3 mm 0.00 in0.0 mm 0.41 in10.4 mm
01:49 PM 48.2°F9.0°C 45.4°F7.4°C 90% 7.6 mph SE12.2 kmh SE 9.2 mph14.8 kmh 29.63 in1003.4 mb 0.05 in1.3 mm 0.00 in0.0 mm 0.41 in10.4 mm
01:51 PM 48.2°F9.0°C 45.4°F7.4°C 90% 8.3 mph SE13.4 kmh SE 9.8 mph15.8 kmh 29.63 in1003.4 mb 0.06 in1.5 mm 0.36 in9.1 mm 0.43 in10.9 mm
01:53 PM 48.2°F9.0°C 45.4°F7.4°C 90% 8.3 mph E13.4 kmh E 9.8 mph15.8 kmh 29.63 in1003.4 mb 0.06 in1.5 mm 0.00 in0.0 mm 0.43 in10.9 mm
01:55 PM 47.8°F8.8°C 45.1°F7.3°C 90% 8.3 mph ENE13.4 kmh ENE 9.2 mph14.8 kmh 29.63 in1003.4 mb 0.05 in1.3 mm 0.00 in0.0 mm 0.43 in10.9 mm
01:57 PM 47.7°F8.7°C 44.9°F7.2°C 90% 7.6 mph ENE12.2 kmh ENE 9.2 mph14.8 kmh 29.62 in1003.0 mb 0.05 in1.3 mm 0.00 in0.0 mm 0.43 in10.9 mm
01:59 PM 47.5°F8.6°C 44.7°F7.1°C 90% 6.9 mph SE11.1 kmh SE 7.6 mph12.2 kmh 29.62 in1003.0 mb 0.05 in1.3 mm 0.00 in0.0 mm 0.43 in10.9 mm
02:01 PM 47.5°F8.6°C 44.7°F7.1°C 90% 6.9 mph SE11.1 kmh SE 7.6 mph12.2 kmh 29.62 in1003.0 mb 0.05 in1.3 mm 0.00 in0.0 mm 0.43 in10.9 mm
02:03 PM 47.5°F8.6°C 44.7°F7.1°C 90% 6.9 mph SE11.1 kmh SE 7.6 mph12.2 kmh 29.63 in1003.4 mb 0.05 in1.3 mm 0.00 in0.0 mm 0.43 in10.9 mm
02:05 PM 47.5°F8.6°C 44.7°F7.1°C 90% 6.9 mph SE11.1 kmh SE 7.6 mph12.2 kmh 29.62 in1003.0 mb 0.05 in1.3 mm 0.00 in0.0 mm 0.43 in10.9 mm
02:07 PM 47.8°F8.8°C 45.1°F7.3°C 90% 6.0 mph SE9.7 kmh SE 8.3 mph13.4 kmh 29.62 in1003.0 mb 0.06 in1.5 mm 0.36 in9.1 mm 0.44 in11.2 mm
02:09 PM 48.0°F8.9°C 45.2°F7.3°C 90% 6.0 mph E9.7 kmh E 8.3 mph13.4 kmh 29.62 in1003.0 mb 0.06 in1.5 mm 0.00 in0.0 mm 0.44 in11.2 mm
02:11 PM 48.0°F8.9°C 45.2°F7.3°C 90% 8.3 mph SE13.4 kmh SE 9.2 mph14.8 kmh 29.62 in1003.0 mb 0.07 in1.8 mm 0.35 in8.9 mm 0.45 in11.4 mm
02:13 PM 48.2°F9.0°C 45.4°F7.4°C 90% 6.0 mph SE9.7 kmh SE 7.6 mph12.2 kmh 29.63 in1003.4 mb 0.06 in1.5 mm 0.00 in0.0 mm 0.45 in11.4 mm
02:15 PM 48.2°F9.0°C 45.4°F7.4°C 90% 6.9 mph SE11.1 kmh SE 8.3 mph13.4 kmh 29.62 in1003.0 mb 0.06 in1.5 mm 0.00 in0.0 mm 0.45 in11.4 mm
02:17 PM 48.4°F9.1°C 45.6°F7.6°C 90% 6.0 mph SE9.7 kmh SE 7.6 mph12.2 kmh 29.63 in1003.4 mb 0.06 in1.5 mm 0.00 in0.0 mm 0.45 in11.4 mm
02:19 PM 48.4°F9.1°C 45.6°F7.6°C 90% 5.4 mph S8.7 kmh S 6.0 mph9.7 kmh 29.63 in1003.4 mb 0.06 in1.5 mm 0.00 in0.0 mm 0.45 in11.4 mm
02:21 PM 48.4°F9.1°C 45.6°F7.6°C 90% 3.1 mph S5.0 kmh S 3.8 mph6.1 kmh 29.62 in1003.0 mb 0.06 in1.5 mm 0.00 in0.0 mm 0.45 in11.4 mm
02:23 PM 48.6°F9.2°C 45.8°F7.7°C 90% 3.8 mph SE6.1 kmh SE 4.5 mph7.2 kmh 29.62 in1003.0 mb 0.07 in1.8 mm 0.35 in8.9 mm 0.46 in11.7 mm
02:25 PM 48.6°F9.2°C 45.8°F7.7°C 90% 6.9 mph ENE11.1 kmh ENE 8.3 mph13.4 kmh 29.61 in1002.7 mb 0.06 in1.5 mm 0.00 in0.0 mm 0.46 in11.7 mm
02:27 PM 48.6°F9.2°C 45.8°F7.7°C 90% 1.6 mph SE2.6 kmh SE 2.2 mph3.5 kmh 29.60 in1002.4 mb 0.06 in1.5 mm 0.00 in0.0 mm 0.46 in11.7 mm
02:29 PM 48.7°F9.3°C 45.9°F7.7°C 90% 3.8 mph SE6.1 kmh SE 5.4 mph8.7 kmh 29.61 in1002.7 mb 0.06 in1.5 mm 0.00 in0.0 mm 0.46 in11.7 mm
02:31 PM 48.9°F9.4°C 46.1°F7.8°C 90% 4.5 mph S7.2 kmh S 6.0 mph9.7 kmh 29.61 in1002.7 mb 0.06 in1.5 mm 0.00 in0.0 mm 0.46 in11.7 mm
02:33 PM 48.9°F9.4°C 46.1°F7.8°C 90% 2.2 mph S3.5 kmh S 3.1 mph5.0 kmh 29.61 in1002.7 mb 0.06 in1.5 mm 0.00 in0.0 mm 0.47 in11.9 mm
02:35 PM 48.9°F9.4°C 46.1°F7.8°C 90% 3.1 mph SE5.0 kmh SE 3.8 mph6.1 kmh 29.61 in1002.7 mb 0.06 in1.5 mm 0.00 in0.0 mm 0.47 in11.9 mm
02:37 PM 48.9°F9.4°C 46.1°F7.8°C 90% 3.1 mph SSE5.0 kmh SSE 3.8 mph6.1 kmh 29.60 in1002.4 mb 0.06 in1.5 mm 0.00 in0.0 mm 0.47 in11.9 mm
02:39 PM 48.9°F9.4°C 46.1°F7.8°C 90% 4.5 mph SE7.2 kmh SE 5.4 mph8.7 kmh 29.60 in1002.4 mb 0.06 in1.5 mm 0.00 in0.0 mm 0.47 in11.9 mm
02:41 PM 48.9°F9.4°C 46.1°F7.8°C 90% 3.8 mph SE6.1 kmh SE 4.5 mph7.2 kmh 29.60 in1002.4 mb 0.06 in1.5 mm 0.00 in0.0 mm 0.47 in11.9 mm
02:43 PM 48.7°F9.3°C 45.9°F7.7°C 90% 2.2 mph SSE3.5 kmh SSE 3.8 mph6.1 kmh 29.61 in1002.7 mb 0.06 in1.5 mm 0.00 in0.0 mm 0.47 in11.9 mm
02:45 PM 48.7°F9.3°C 45.9°F7.7°C 90% 1.6 mph SE2.6 kmh SE 2.2 mph3.5 kmh 29.61 in1002.7 mb 0.06 in1.5 mm 0.00 in0.0 mm 0.47 in11.9 mm
02:47 PM 48.7°F9.3°C 45.9°F7.7°C 90% 3.8 mph SSE6.1 kmh SSE 5.4 mph8.7 kmh 29.60 in1002.4 mb 0.06 in1.5 mm 0.00 in0.0 mm 0.47 in11.9 mm
02:49 PM 48.7°F9.3°C 45.9°F7.7°C 90% 4.5 mph SE7.2 kmh SE 6.0 mph9.7 kmh 29.61 in1002.7 mb 0.06 in1.5 mm 0.00 in0.0 mm 0.47 in11.9 mm
02:51 PM 48.6°F9.2°C 45.8°F7.7°C 90% 3.1 mph SE5.0 kmh SE 3.8 mph6.1 kmh 29.60 in1002.4 mb 0.05 in1.3 mm 0.00 in0.0 mm 0.47 in11.9 mm
02:53 PM 48.6°F9.2°C 45.8°F7.7°C 90% 3.8 mph SE6.1 kmh SE 4.5 mph7.2 kmh 29.60 in1002.4 mb 0.05 in1.3 mm 0.00 in0.0 mm 0.47 in11.9 mm
02:55 PM 48.6°F9.2°C 45.8°F7.7°C 90% 5.4 mph SE8.7 kmh SE 6.0 mph9.7 kmh 29.61 in1002.7 mb 0.05 in1.3 mm 0.00 in0.0 mm 0.47 in11.9 mm
02:57 PM 48.6°F9.2°C 45.8°F7.7°C 90% 2.2 mph SSE3.5 kmh SSE 3.8 mph6.1 kmh 29.60 in1002.4 mb 0.05 in1.3 mm 0.00 in0.0 mm 0.47 in11.9 mm
02:59 PM 48.6°F9.2°C 45.8°F7.7°C 90% 2.2 mph SE3.5 kmh SE 3.1 mph5.0 kmh 29.60 in1002.4 mb 0.05 in1.3 mm 0.00 in0.0 mm 0.47 in11.9 mm
03:01 PM 48.6°F9.2°C 45.8°F7.7°C 90% 2.2 mph SE3.5 kmh SE 3.8 mph6.1 kmh 29.59 in1002.0 mb 0.06 in1.5 mm 0.01 in0.3 mm 0.48 in12.2 mm
03:03 PM 48.6°F9.2°C 45.8°F7.7°C 90% 1.6 mph SE2.6 kmh SE 1.6 mph2.6 kmh 29.59 in1002.0 mb 0.06 in1.5 mm 0.00 in0.0 mm 0.48 in12.2 mm
03:05 PM 48.6°F9.2°C 45.8°F7.7°C 90% 1.6 mph SSE2.6 kmh SSE 2.2 mph3.5 kmh 29.60 in1002.4 mb 0.06 in1.5 mm 0.00 in0.0 mm 0.48 in12.2 mm
03:07 PM 48.6°F9.2°C 45.8°F7.7°C 90% 1.6 mph S2.6 kmh S 3.1 mph5.0 kmh 29.60 in1002.4 mb 0.05 in1.3 mm 0.00 in0.0 mm 0.48 in12.2 mm
03:09 PM 48.6°F9.2°C 45.8°F7.7°C 90% 0.7 mph S1.1 kmh S 1.6 mph2.6 kmh 29.60 in1002.4 mb 0.04 in1.0 mm 0.00 in0.0 mm 0.48 in12.2 mm
03:11 PM 48.4°F9.1°C 45.6°F7.6°C 90% 2.2 mph S3.5 kmh S 3.1 mph5.0 kmh 29.60 in1002.4 mb 0.04 in1.0 mm 0.00 in0.0 mm 0.48 in12.2 mm
03:13 PM 48.6°F9.2°C 45.8°F7.7°C 90% 1.6 mph SE2.6 kmh SE 3.1 mph5.0 kmh 29.61 in1002.7 mb 0.04 in1.0 mm 0.00 in0.0 mm 0.48 in12.2 mm
03:15 PM 48.6°F9.2°C 45.8°F7.7°C 90% 2.2 mph SE3.5 kmh SE 3.1 mph5.0 kmh 29.61 in1002.7 mb 0.04 in1.0 mm 0.00 in0.0 mm 0.48 in12.2 mm
03:17 PM 48.6°F9.2°C 45.8°F7.7°C 90% 3.8 mph SE6.1 kmh SE 4.5 mph7.2 kmh 29.61 in1002.7 mb 0.04 in1.0 mm 0.00 in0.0 mm 0.48 in12.2 mm
03:19 PM 48.6°F9.2°C 45.8°F7.7°C 90% 3.8 mph S6.1 kmh S 5.4 mph8.7 kmh 29.60 in1002.4 mb 0.05 in1.3 mm 0.35 in8.9 mm 0.50 in12.7 mm
03:21 PM 48.6°F9.2°C 45.8°F7.7°C 90% Calm Calm 0.7 mph1.1 kmh 29.60 in1002.4 mb 0.04 in1.0 mm 0.00 in0.0 mm 0.50 in12.7 mm
03:24 PM 48.6°F9.2°C 45.8°F7.7°C 90% 0.7 mph S1.1 kmh S 1.6 mph2.6 kmh 29.61 in1002.7 mb 0.04 in1.0 mm 0.00 in0.0 mm 0.50 in12.7 mm
03:25 PM 48.6°F9.2°C 45.8°F7.7°C 90% 3.1 mph SE5.0 kmh SE 3.8 mph6.1 kmh 29.61 in1002.7 mb 0.04 in1.0 mm 0.00 in0.0 mm 0.50 in12.7 mm
03:27 PM 48.4°F9.1°C 45.6°F7.6°C 90% 3.8 mph S6.1 kmh S 4.5 mph7.2 kmh 29.60 in1002.4 mb 0.04 in1.0 mm 0.00 in0.0 mm 0.50 in12.7 mm
03:29 PM 48.4°F9.1°C 45.6°F7.6°C 90% 3.1 mph SE5.0 kmh SE 3.8 mph6.1 kmh 29.60 in1002.4 mb 0.04 in1.0 mm 0.00 in0.0 mm 0.50 in12.7 mm
03:31 PM 48.4°F9.1°C 45.6°F7.6°C 90% 2.2 mph SE3.5 kmh SE 3.1 mph5.0 kmh 29.61 in1002.7 mb 0.04 in1.0 mm 0.00 in0.0 mm 0.50 in12.7 mm
03:33 PM 48.4°F9.1°C 45.6°F7.6°C 90% 3.8 mph SE6.1 kmh SE 4.5 mph7.2 kmh 29.62 in1003.0 mb 0.02 in0.5 mm 0.00 in0.0 mm 0.50 in12.7 mm
03:35 PM 48.4°F9.1°C 45.6°F7.6°C 90% 3.1 mph SE5.0 kmh SE 3.8 mph6.1 kmh 29.62 in1003.0 mb 0.02 in0.5 mm 0.00 in0.0 mm 0.50 in12.7 mm
03:37 PM 48.4°F9.1°C 45.6°F7.6°C 90% 4.5 mph SE7.2 kmh SE 6.0 mph9.7 kmh 29.62 in1003.0 mb 0.04 in1.0 mm 0.35 in8.9 mm 0.51 in13.0 mm
03:39 PM 48.4°F9.1°C 45.6°F7.6°C 90% 3.1 mph SE5.0 kmh SE 3.8 mph6.1 kmh 29.62 in1003.0 mb 0.04 in1.0 mm 0.00 in0.0 mm 0.51 in13.0 mm
03:41 PM 48.4°F9.1°C 45.6°F7.6°C 90% 2.2 mph SE3.5 kmh SE 3.1 mph5.0 kmh 29.61 in1002.7 mb 0.04 in1.0 mm 0.00 in0.0 mm 0.51 in13.0 mm
03:43 PM 48.2°F9.0°C 45.4°F7.4°C 90% 2.2 mph SE3.5 kmh SE 3.8 mph6.1 kmh 29.61 in1002.7 mb 0.04 in1.0 mm 0.00 in0.0 mm 0.51 in13.0 mm
03:45 PM 48.2°F9.0°C 45.4°F7.4°C 90% 1.6 mph SE2.6 kmh SE 2.2 mph3.5 kmh 29.61 in1002.7 mb 0.04 in1.0 mm 0.00 in0.0 mm 0.51 in13.0 mm
03:47 PM 48.2°F9.0°C 45.4°F7.4°C 90% 1.6 mph E2.6 kmh E 2.2 mph3.5 kmh 29.61 in1002.7 mb 0.05 in1.3 mm 0.35 in8.9 mm 0.52 in13.2 mm
03:49 PM 48.2°F9.0°C 45.4°F7.4°C 90% 2.2 mph SE3.5 kmh SE 3.1 mph5.0 kmh 29.61 in1002.7 mb 0.05 in1.3 mm 0.00 in0.0 mm 0.52 in13.2 mm
03:51 PM 48.2°F9.0°C 45.4°F7.4°C 90% 1.6 mph SE2.6 kmh SE 2.2 mph3.5 kmh 29.61 in1002.7 mb 0.05 in1.3 mm 0.00 in0.0 mm 0.52 in13.2 mm
03:53 PM 48.2°F9.0°C 45.4°F7.4°C 90% 3.1 mph SE5.0 kmh SE 3.8 mph6.1 kmh 29.61 in1002.7 mb 0.05 in1.3 mm 0.00 in0.0 mm 0.52 in13.2 mm
03:55 PM 48.0°F8.9°C 45.2°F7.3°C 90% 3.1 mph E5.0 kmh E 3.8 mph6.1 kmh 29.60 in1002.4 mb 0.05 in1.3 mm 0.00 in0.0 mm 0.52 in13.2 mm
03:57 PM 48.0°F8.9°C 45.2°F7.3°C 90% 4.5 mph E7.2 kmh E 5.4 mph8.7 kmh 29.60 in1002.4 mb 0.05 in1.3 mm 0.00 in0.0 mm 0.52 in13.2 mm
03:59 PM 47.8°F8.8°C 45.1°F7.3°C 90% 6.0 mph ENE9.7 kmh ENE 6.9 mph11.1 kmh 29.60 in1002.4 mb 0.04 in1.0 mm 0.00 in0.0 mm 0.52 in13.2 mm
04:01 PM 47.7°F8.7°C 44.9°F7.2°C 90% 6.9 mph SE11.1 kmh SE 7.6 mph12.2 kmh 29.60 in1002.4 mb 0.05 in1.3 mm 0.01 in0.3 mm 0.53 in13.5 mm
04:03 PM 47.7°F8.7°C 44.9°F7.2°C 90% 8.3 mph SE13.4 kmh SE 9.2 mph14.8 kmh 29.60 in1002.4 mb 0.05 in1.3 mm 0.00 in0.0 mm 0.53 in13.5 mm
04:05 PM 47.5°F8.6°C 44.7°F7.1°C 90% 8.3 mph SE13.4 kmh SE 9.8 mph15.8 kmh 29.60 in1002.4 mb 0.05 in1.3 mm 0.00 in0.0 mm 0.53 in13.5 mm
04:07 PM 47.5°F8.6°C 44.7°F7.1°C 90% 11.4 mph ENE18.3 kmh ENE 12.1 mph19.5 kmh 29.61 in1002.7 mb 0.06 in1.5 mm 0.36 in9.1 mm 0.54 in13.7 mm
04:09 PM 47.5°F8.6°C 44.7°F7.1°C 90% 13.0 mph SE20.9 kmh SE 15.2 mph24.5 kmh 29.62 in1003.0 mb 0.06 in1.5 mm 0.00 in0.0 mm 0.54 in13.7 mm
04:11 PM 47.7°F8.7°C 44.9°F7.2°C 90% 11.4 mph SE18.3 kmh SE 13.0 mph20.9 kmh 29.62 in1003.0 mb 0.06 in1.5 mm 0.00 in0.0 mm 0.54 in13.7 mm
04:13 PM 47.7°F8.7°C 44.9°F7.2°C 90% 8.3 mph SE13.4 kmh SE 9.2 mph14.8 kmh 29.61 in1002.7 mb 0.07 in1.8 mm 0.35 in8.9 mm 0.56 in14.2 mm
04:15 PM 47.7°F8.7°C 44.9°F7.2°C 90% 8.3 mph SE13.4 kmh SE 9.2 mph14.8 kmh 29.61 in1002.7 mb 0.07 in1.8 mm 0.00 in0.0 mm 0.56 in14.2 mm
04:17 PM 47.7°F8.7°C 44.9°F7.2°C 90% 6.0 mph SE9.7 kmh SE 8.3 mph13.4 kmh 29.61 in1002.7 mb 0.07 in1.8 mm 0.00 in0.0 mm 0.57 in14.5 mm
04:19 PM 47.7°F8.7°C 44.9°F7.2°C 90% 4.5 mph E7.2 kmh E 5.4 mph8.7 kmh 29.60 in1002.4 mb 0.07 in1.8 mm 0.00 in0.0 mm 0.57 in14.5 mm
04:21 PM 47.7°F8.7°C 44.9°F7.2°C 90% 3.8 mph SE6.1 kmh SE 5.4 mph8.7 kmh 29.61 in1002.7 mb 0.08 in2.0 mm 0.35 in8.9 mm 0.58 in14.7 mm
04:23 PM 47.5°F8.6°C 44.7°F7.1°C 90% 0.7 mph SE1.1 kmh SE 1.6 mph2.6 kmh 29.60 in1002.4 mb 0.08 in2.0 mm 0.00 in0.0 mm 0.58 in14.7 mm
04:25 PM 47.5°F8.6°C 44.7°F7.1°C 90% 1.6 mph SE2.6 kmh SE 2.2 mph3.5 kmh 29.61 in1002.7 mb 0.08 in2.0 mm 0.00 in0.0 mm 0.58 in14.7 mm
04:27 PM 47.5°F8.6°C 44.7°F7.1°C 90% 3.8 mph SE6.1 kmh SE 5.4 mph8.7 kmh 29.62 in1003.0 mb 0.08 in2.0 mm 0.00 in0.0 mm 0.58 in14.7 mm
04:29 PM 47.5°F8.6°C 44.7°F7.1°C 90% 4.5 mph SE7.2 kmh SE 6.0 mph9.7 kmh 29.61 in1002.7 mb 0.08 in2.0 mm 0.00 in0.0 mm 0.58 in14.7 mm
04:32 PM 47.7°F8.7°C 44.9°F7.2°C 90% 8.3 mph SE13.4 kmh SE 10.7 mph17.2 kmh 29.61 in1002.7 mb 0.08 in2.0 mm 0.00 in0.0 mm 0.58 in14.7 mm
04:34 PM 47.7°F8.7°C 44.9°F7.2°C 90% 9.8 mph SE15.8 kmh SE 10.7 mph17.2 kmh 29.61 in1002.7 mb 0.08 in2.0 mm 0.00 in0.0 mm 0.58 in14.7 mm
04:36 PM 47.5°F8.6°C 44.7°F7.1°C 90% 10.7 mph SE17.2 kmh SE 11.4 mph18.3 kmh 29.61 in1002.7 mb 0.08 in2.0 mm 0.00 in0.0 mm 0.59 in15.0 mm
04:38 PM 47.5°F8.6°C 44.7°F7.1°C 90% 9.8 mph ENE15.8 kmh ENE 10.7 mph17.2 kmh 29.61 in1002.7 mb 0.08 in2.0 mm 0.00 in0.0 mm 0.59 in15.0 mm
04:40 PM 47.3°F8.5°C 44.5°F6.9°C 90% 9.2 mph E14.8 kmh E 9.8 mph15.8 kmh 29.60 in1002.4 mb 0.08 in2.0 mm 0.00 in0.0 mm 0.59 in15.0 mm
04:42 PM 47.3°F8.5°C 44.5°F6.9°C 90% 8.3 mph ENE13.4 kmh ENE 9.8 mph15.8 kmh 29.61 in1002.7 mb 0.08 in2.0 mm 0.00 in0.0 mm 0.59 in15.0 mm
04:44 PM 46.9°F8.3°C 44.2°F6.8°C 90% 9.2 mph SE14.8 kmh SE 9.8 mph15.8 kmh 29.61 in1002.7 mb 0.09 in2.3 mm 0.35 in8.9 mm 0.60 in15.2 mm
04:46 PM 46.9°F8.3°C 44.2°F6.8°C 90% 8.3 mph SE13.4 kmh SE 9.8 mph15.8 kmh 29.60 in1002.4 mb 0.08 in2.0 mm 0.00 in0.0 mm 0.60 in15.2 mm
04:48 PM 46.9°F8.3°C 44.2°F6.8°C 90% 8.3 mph S13.4 kmh S 10.7 mph17.2 kmh 29.61 in1002.7 mb 0.09 in2.3 mm 0.35 in8.9 mm 0.61 in15.5 mm
04:50 PM 47.1°F8.4°C 44.3°F6.8°C 90% 6.0 mph S9.7 kmh S 7.6 mph12.2 kmh 29.61 in1002.7 mb 0.09 in2.3 mm 0.00 in0.0 mm 0.61 in15.5 mm
04:52 PM 47.1°F8.4°C 44.3°F6.8°C 90% 3.8 mph SE6.1 kmh SE 5.4 mph8.7 kmh 29.60 in1002.4 mb 0.09 in2.3 mm 0.00 in0.0 mm 0.61 in15.5 mm
04:54 PM 47.3°F8.5°C 44.5°F6.9°C 90% 6.9 mph SE11.1 kmh SE 8.3 mph13.4 kmh 29.61 in1002.7 mb 0.09 in2.3 mm 0.00 in0.0 mm 0.61 in15.5 mm
04:56 PM 47.3°F8.5°C 44.5°F6.9°C 90% 3.8 mph SE6.1 kmh SE 5.4 mph8.7 kmh 29.60 in1002.4 mb 0.09 in2.3 mm 0.00 in0.0 mm 0.61 in15.5 mm
04:58 PM 47.3°F8.5°C 44.5°F6.9°C 90% 6.9 mph S11.1 kmh S 8.3 mph13.4 kmh 29.60 in1002.4 mb 0.09 in2.3 mm 0.00 in0.0 mm 0.61 in15.5 mm
05:00 PM 47.3°F8.5°C 44.5°F6.9°C 90% 3.8 mph S6.1 kmh S 6.0 mph9.7 kmh 29.60 in1002.4 mb 0.08 in2.0 mm 0.00 in0.0 mm 0.61 in15.5 mm
05:02 PM 47.3°F8.5°C 44.5°F6.9°C 90% 3.1 mph SE5.0 kmh SE 3.8 mph6.1 kmh 29.61 in1002.7 mb 0.08 in2.0 mm 0.00 in0.0 mm 0.61 in15.5 mm
05:04 PM 47.3°F8.5°C 44.5°F6.9°C 90% 3.1 mph SE5.0 kmh SE 3.8 mph6.1 kmh 29.60 in1002.4 mb 0.09 in2.3 mm 0.35 in8.9 mm 0.63 in16.0 mm
05:06 PM 47.3°F8.5°C 44.5°F6.9°C 90% 2.2 mph SE3.5 kmh SE 3.1 mph5.0 kmh 29.60 in1002.4 mb 0.08 in2.0 mm 0.00 in0.0 mm 0.63 in16.0 mm
05:08 PM 47.3°F8.5°C 44.5°F6.9°C 90% 3.8 mph E6.1 kmh E 4.5 mph7.2 kmh 29.60 in1002.4 mb 0.08 in2.0 mm 0.00 in0.0 mm 0.63 in16.0 mm
05:10 PM 47.3°F8.5°C 44.5°F6.9°C 90% 6.0 mph SE9.7 kmh SE 6.9 mph11.1 kmh 29.60 in1002.4 mb 0.08 in2.0 mm 0.00 in0.0 mm 0.63 in16.0 mm
05:12 PM 47.3°F8.5°C 44.5°F6.9°C 90% 6.9 mph SE11.1 kmh SE 10.7 mph17.2 kmh 29.60 in1002.4 mb 0.07 in1.8 mm 0.00 in0.0 mm 0.63 in16.0 mm
05:14 PM 47.3°F8.5°C 44.5°F6.9°C 90% 5.4 mph SE8.7 kmh SE 6.9 mph11.1 kmh 29.60 in1002.4 mb 0.07 in1.8 mm 0.00 in0.0 mm 0.63 in16.0 mm
05:16 PM 47.1°F8.4°C 44.3°F6.8°C 90% 3.8 mph SE6.1 kmh SE 4.5 mph7.2 kmh 29.60 in1002.4 mb 0.07 in1.8 mm 0.00 in0.0 mm 0.64 in16.3 mm
05:18 PM 47.1°F8.4°C 44.3°F6.8°C 90% 4.5 mph SE7.2 kmh SE 6.0 mph9.7 kmh 29.60 in1002.4 mb 0.07 in1.8 mm 0.00 in0.0 mm 0.64 in16.3 mm
05:20 PM 47.1°F8.4°C 44.3°F6.8°C 90% 4.5 mph SE7.2 kmh SE 6.0 mph9.7 kmh 29.60 in1002.4 mb 0.06 in1.5 mm 0.00 in0.0 mm 0.64 in16.3 mm
05:22 PM 46.9°F8.3°C 44.2°F6.8°C 90% 4.5 mph SE7.2 kmh SE 5.4 mph8.7 kmh 29.60 in1002.4 mb 0.06 in1.5 mm 0.00 in0.0 mm 0.64 in16.3 mm
05:24 PM 46.9°F8.3°C 44.2°F6.8°C 90% 5.4 mph SE8.7 kmh SE 7.6 mph12.2 kmh 29.60 in1002.4 mb 0.06 in1.5 mm 0.00 in0.0 mm 0.64 in16.3 mm
05:26 PM 46.8°F8.2°C 44.0°F6.7°C 90% 6.9 mph SE11.1 kmh SE 8.3 mph13.4 kmh 29.60 in1002.4 mb 0.06 in1.5 mm 0.00 in0.0 mm 0.64 in16.3 mm
05:28 PM 46.8°F8.2°C 44.0°F6.7°C 90% 7.6 mph SE12.2 kmh SE 9.2 mph14.8 kmh 29.60 in1002.4 mb 0.06 in1.5 mm 0.00 in0.0 mm 0.64 in16.3 mm
05:30 PM 46.6°F8.1°C 43.8°F6.6°C 90% 5.4 mph S8.7 kmh S 6.0 mph9.7 kmh 29.60 in1002.4 mb 0.06 in1.5 mm 0.00 in0.0 mm 0.64 in16.3 mm
05:32 PM 46.6°F8.1°C 43.8°F6.6°C 90% 6.9 mph ENE11.1 kmh ENE 8.3 mph13.4 kmh 29.60 in1002.4 mb 0.07 in1.8 mm 0.35 in8.9 mm 0.65 in16.5 mm
05:35 PM 46.6°F8.1°C 43.8°F6.6°C 90% 6.0 mph SE9.7 kmh SE 8.3 mph13.4 kmh 29.60 in1002.4 mb 0.06 in1.5 mm 0.00 in0.0 mm 0.65 in16.5 mm
05:36 PM 46.6°F8.1°C 43.8°F6.6°C 90% 9.2 mph SE14.8 kmh SE 11.4 mph18.3 kmh 29.60 in1002.4 mb 0.06 in1.5 mm 0.00 in0.0 mm 0.65 in16.5 mm
05:38 PM 46.6°F8.1°C 43.8°F6.6°C 90% 7.6 mph ENE12.2 kmh ENE 9.8 mph15.8 kmh 29.60 in1002.4 mb 0.07 in1.8 mm 0.35 in8.9 mm 0.66 in16.8 mm
05:40 PM 46.6°F8.1°C 43.8°F6.6°C 90% 4.5 mph S7.2 kmh S 5.4 mph8.7 kmh 29.61 in1002.7 mb 0.07 in1.8 mm 0.00 in0.0 mm 0.66 in16.8 mm
05:42 PM 46.6°F8.1°C 43.8°F6.6°C 90% 4.5 mph SE7.2 kmh SE 6.0 mph9.7 kmh 29.61 in1002.7 mb 0.06 in1.5 mm 0.00 in0.0 mm 0.66 in16.8 mm
05:44 PM 46.4°F8.0°C 43.6°F6.4°C 90% 6.9 mph SE11.1 kmh SE 9.2 mph14.8 kmh 29.60 in1002.4 mb 0.07 in1.8 mm 0.35 in8.9 mm 0.67 in17.0 mm
05:46 PM 46.4°F8.0°C 43.6°F6.4°C 90% 6.0 mph ENE9.7 kmh ENE 7.6 mph12.2 kmh 29.61 in1002.7 mb 0.07 in1.8 mm 0.00 in0.0 mm 0.69 in17.5 mm
05:48 PM 46.4°F8.0°C 43.6°F6.4°C 90% 4.5 mph SE7.2 kmh SE 5.4 mph8.7 kmh 29.60 in1002.4 mb 0.07 in1.8 mm 0.00 in0.0 mm 0.69 in17.5 mm
05:50 PM 46.4°F8.0°C 43.6°F6.4°C 90% 6.0 mph SSE9.7 kmh SSE 7.6 mph12.2 kmh 29.59 in1002.0 mb 0.07 in1.8 mm 0.00 in0.0 mm 0.69 in17.5 mm
05:52 PM 46.4°F8.0°C 43.6°F6.4°C 90% 2.2 mph S3.5 kmh S 3.1 mph5.0 kmh 29.60 in1002.4 mb 0.08 in2.0 mm 0.35 in8.9 mm 0.70 in17.8 mm
05:55 PM 46.4°F8.0°C 43.6°F6.4°C 90% 5.4 mph E8.7 kmh E 6.9 mph11.1 kmh 29.60 in1002.4 mb 0.08 in2.0 mm 0.00 in0.0 mm 0.70 in17.8 mm
05:56 PM 46.4°F8.0°C 43.6°F6.4°C 90% 6.9 mph SE11.1 kmh SE 7.6 mph12.2 kmh 29.59 in1002.0 mb 0.09 in2.3 mm 0.71 in18.0 mm 0.71 in18.0 mm
05:58 PM 46.2°F7.9°C 43.5°F6.4°C 90% 6.9 mph E11.1 kmh E 7.6 mph12.2 kmh 29.59 in1002.0 mb 0.09 in2.3 mm 0.00 in0.0 mm 0.71 in18.0 mm
06:00 PM 46.0°F7.8°C 43.3°F6.3°C 90% 6.9 mph ENE11.1 kmh ENE 7.6 mph12.2 kmh 29.59 in1002.0 mb 0.09 in2.3 mm 0.00 in0.0 mm 0.71 in18.0 mm
06:02 PM 45.9°F7.7°C 43.1°F6.2°C 90% 6.0 mph ENE9.7 kmh ENE 6.9 mph11.1 kmh 29.59 in1002.0 mb 0.08 in2.0 mm 0.00 in0.0 mm 0.71 in18.0 mm
06:04 PM 45.7°F7.6°C 42.9°F6.1°C 90% 6.0 mph ENE9.7 kmh ENE 6.9 mph11.1 kmh 29.60 in1002.4 mb 0.08 in2.0 mm 0.00 in0.0 mm 0.71 in18.0 mm
06:06 PM 45.7°F7.6°C 42.9°F6.1°C 90% 5.4 mph SE8.7 kmh SE 6.9 mph11.1 kmh 29.60 in1002.4 mb 0.08 in2.0 mm 0.00 in0.0 mm 0.71 in18.0 mm
06:08 PM 45.5°F7.5°C 42.7°F5.9°C 90% 8.3 mph SE13.4 kmh SE 9.8 mph15.8 kmh 29.60 in1002.4 mb 0.08 in2.0 mm 0.00 in0.0 mm 0.71 in18.0 mm
06:10 PM 45.7°F7.6°C 42.9°F6.1°C 90% 6.0 mph SE9.7 kmh SE 6.9 mph11.1 kmh 29.60 in1002.4 mb 0.08 in2.0 mm 0.00 in0.0 mm 0.71 in18.0 mm
06:12 PM 45.7°F7.6°C 42.9°F6.1°C 90% 7.6 mph SE12.2 kmh SE 9.8 mph15.8 kmh 29.59 in1002.0 mb 0.08 in2.0 mm 0.00 in0.0 mm 0.71 in18.0 mm
06:14 PM 45.7°F7.6°C 42.9°F6.1°C 90% 9.2 mph ENE14.8 kmh ENE 10.7 mph17.2 kmh 29.60 in1002.4 mb 0.08 in2.0 mm 0.00 in0.0 mm 0.71 in18.0 mm
06:16 PM 45.9°F7.7°C 43.1°F6.2°C 90% 6.9 mph SE11.1 kmh SE 8.3 mph13.4 kmh 29.60 in1002.4 mb 0.07 in1.8 mm 0.00 in0.0 mm 0.71 in18.0 mm
06:18 PM 45.9°F7.7°C 43.1°F6.2°C 90% 7.6 mph SE12.2 kmh SE 8.3 mph13.4 kmh 29.60 in1002.4 mb 0.07 in1.8 mm 0.00 in0.0 mm 0.71 in18.0 mm
06:20 PM 45.9°F7.7°C 43.1°F6.2°C 90% 8.3 mph SE13.4 kmh SE 9.2 mph14.8 kmh 29.59 in1002.0 mb 0.07 in1.8 mm 0.00 in0.0 mm 0.71 in18.0 mm
06:22 PM 46.0°F7.8°C 43.3°F6.3°C 90% 5.4 mph SE8.7 kmh SE 6.0 mph9.7 kmh 29.59 in1002.0 mb 0.07 in1.8 mm 0.00 in0.0 mm 0.71 in18.0 mm
06:24 PM 45.9°F7.7°C 43.1°F6.2°C 90% 5.4 mph E8.7 kmh E 6.9 mph11.1 kmh 29.60 in1002.4 mb 0.07 in1.8 mm 0.00 in0.0 mm 0.71 in18.0 mm
06:26 PM 45.9°F7.7°C 43.1°F6.2°C 90% 6.9 mph SE11.1 kmh SE 8.3 mph13.4 kmh 29.59 in1002.0 mb 0.07 in1.8 mm 0.00 in0.0 mm 0.71 in18.0 mm
06:28 PM 45.9°F7.7°C 43.1°F6.2°C 90% 6.0 mph S9.7 kmh S 7.6 mph12.2 kmh 29.59 in1002.0 mb 0.08 in2.0 mm 0.35 in8.9 mm 0.72 in18.3 mm
06:30 PM 46.0°F7.8°C 43.3°F6.3°C 90% 3.8 mph SSE6.1 kmh SSE 5.4 mph8.7 kmh 29.59 in1002.0 mb 0.07 in1.8 mm 0.00 in0.0 mm 0.72 in18.3 mm
06:32 PM 45.9°F7.7°C 43.1°F6.2°C 90% 6.0 mph SE9.7 kmh SE 6.9 mph11.1 kmh 29.60 in1002.4 mb 0.07 in1.8 mm 0.00 in0.0 mm 0.72 in18.3 mm
06:34 PM 45.9°F7.7°C 43.1°F6.2°C 90% 5.4 mph SE8.7 kmh SE 6.9 mph11.1 kmh 29.60 in1002.4 mb 0.07 in1.8 mm 0.00 in0.0 mm 0.72 in18.3 mm
06:36 PM 45.9°F7.7°C 43.1°F6.2°C 90% 6.0 mph ENE9.7 kmh ENE 7.6 mph12.2 kmh 29.60 in1002.4 mb 0.07 in1.8 mm 0.00 in0.0 mm 0.72 in18.3 mm
06:38 PM 45.9°F7.7°C 43.1°F6.2°C 90% 6.0 mph ENE9.7 kmh ENE 8.3 mph13.4 kmh 29.60 in1002.4 mb 0.07 in1.8 mm 0.00 in0.0 mm 0.73 in18.5 mm
06:40 PM 45.9°F7.7°C 43.1°F6.2°C 90% 6.9 mph E11.1 kmh E 7.6 mph12.2 kmh 29.59 in1002.0 mb 0.07 in1.8 mm 0.00 in0.0 mm 0.73 in18.5 mm
06:42 PM 45.7°F7.6°C 42.9°F6.1°C 90% 6.0 mph SE9.7 kmh SE 7.6 mph12.2 kmh 29.59 in1002.0 mb 0.06 in1.5 mm 0.00 in0.0 mm 0.73 in18.5 mm
06:44 PM 45.7°F7.6°C 42.9°F6.1°C 90% 6.0 mph SE9.7 kmh SE 6.9 mph11.1 kmh 29.59 in1002.0 mb 0.06 in1.5 mm 0.00 in0.0 mm 0.73 in18.5 mm
06:46 PM 45.7°F7.6°C 42.9°F6.1°C 90% 4.5 mph SE7.2 kmh SE 5.4 mph8.7 kmh 29.59 in1002.0 mb 0.05 in1.3 mm 0.00 in0.0 mm 0.73 in18.5 mm
06:48 PM 45.7°F7.6°C 42.9°F6.1°C 90% 5.4 mph SE8.7 kmh SE 6.9 mph11.1 kmh 29.60 in1002.4 mb 0.05 in1.3 mm 0.00 in0.0 mm 0.73 in18.5 mm
06:50 PM 45.7°F7.6°C 42.9°F6.1°C 90% 6.0 mph SE9.7 kmh SE 7.6 mph12.2 kmh 29.59 in1002.0 mb 0.04 in1.0 mm 0.00 in0.0 mm 0.73 in18.5 mm
06:52 PM 45.7°F7.6°C 42.9°F6.1°C 90% 6.0 mph SE9.7 kmh SE 6.9 mph11.1 kmh 29.59 in1002.0 mb 0.05 in1.3 mm 0.35 in8.9 mm 0.74 in18.8 mm
06:54 PM 45.7°F7.6°C 42.9°F6.1°C 90% 6.9 mph SE11.1 kmh SE 7.6 mph12.2 kmh 29.60 in1002.4 mb 0.05 in1.3 mm 0.00 in0.0 mm 0.74 in18.8 mm
06:56 PM 45.7°F7.6°C 42.9°F6.1°C 90% 6.0 mph SE9.7 kmh SE 6.9 mph11.1 kmh 29.59 in1002.0 mb 0.04 in1.0 mm 0.00 in0.0 mm 0.74 in18.8 mm
06:58 PM 45.5°F7.5°C 42.7°F5.9°C 90% 8.3 mph SE13.4 kmh SE 9.2 mph14.8 kmh 29.59 in1002.0 mb 0.04 in1.0 mm 0.00 in0.0 mm 0.74 in18.8 mm
07:00 PM 45.5°F7.5°C 42.7°F5.9°C 90% 5.4 mph SE8.7 kmh SE 6.9 mph11.1 kmh 29.59 in1002.0 mb 0.04 in1.0 mm 0.00 in0.0 mm 0.74 in18.8 mm
07:02 PM 45.3°F7.4°C 43.4°F6.3°C 93% 3.8 mph E6.1 kmh E 4.5 mph7.2 kmh 29.59 in1002.0 mb 0.04 in1.0 mm 0.00 in0.0 mm 0.74 in18.8 mm
07:04 PM 45.3°F7.4°C 43.4°F6.3°C 93% 4.5 mph E7.2 kmh E 5.4 mph8.7 kmh 29.59 in1002.0 mb 0.04 in1.0 mm 0.00 in0.0 mm 0.74 in18.8 mm
07:06 PM 45.1°F7.3°C 43.2°F6.2°C 93% 5.4 mph E8.7 kmh E 6.0 mph9.7 kmh 29.59 in1002.0 mb 0.05 in1.3 mm 0.35 in8.9 mm 0.76 in19.3 mm
07:08 PM 45.0°F7.2°C 43.1°F6.2°C 93% 5.4 mph SE8.7 kmh SE 6.0 mph9.7 kmh 29.59 in1002.0 mb 0.05 in1.3 mm 0.00 in0.0 mm 0.76 in19.3 mm
07:10 PM 44.8°F7.1°C 42.9°F6.1°C 93% 5.4 mph E8.7 kmh E 6.9 mph11.1 kmh 29.59 in1002.0 mb 0.05 in1.3 mm 0.00 in0.0 mm 0.76 in19.3 mm
07:12 PM 44.8°F7.1°C 42.9°F6.1°C 93% 5.4 mph SE8.7 kmh SE 6.0 mph9.7 kmh 29.59 in1002.0 mb 0.05 in1.3 mm 0.00 in0.0 mm 0.76 in19.3 mm
07:14 PM 44.8°F7.1°C 42.9°F6.1°C 93% 4.5 mph SE7.2 kmh SE 6.0 mph9.7 kmh 29.59 in1002.0 mb 0.05 in1.3 mm 0.00 in0.0 mm 0.76 in19.3 mm
07:16 PM 44.8°F7.1°C 42.9°F6.1°C 93% 4.5 mph E7.2 kmh E 6.0 mph9.7 kmh 29.59 in1002.0 mb 0.05 in1.3 mm 0.00 in0.0 mm 0.76 in19.3 mm
07:18 PM 44.8°F7.1°C 42.9°F6.1°C 93% 6.0 mph SE9.7 kmh SE 6.9 mph11.1 kmh 29.59 in1002.0 mb 0.05 in1.3 mm 0.00 in0.0 mm 0.76 in19.3 mm
07:20 PM 44.8°F7.1°C 42.9°F6.1°C 93% 5.4 mph SE8.7 kmh SE 6.0 mph9.7 kmh 29.60 in1002.4 mb 0.05 in1.3 mm 0.00 in0.0 mm 0.76 in19.3 mm
07:22 PM 44.6°F7.0°C 42.7°F5.9°C 93% 4.5 mph SE7.2 kmh SE 5.4 mph8.7 kmh 29.60 in1002.4 mb 0.05 in1.3 mm 0.00 in0.0 mm 0.76 in19.3 mm
07:24 PM 44.8°F7.1°C 42.9°F6.1°C 93% 5.4 mph SE8.7 kmh SE 6.0 mph9.7 kmh 29.59 in1002.0 mb 0.05 in1.3 mm 0.00 in0.0 mm 0.76 in19.3 mm
07:26 PM 44.8°F7.1°C 42.9°F6.1°C 93% 3.1 mph SE5.0 kmh SE 3.8 mph6.1 kmh 29.59 in1002.0 mb 0.04 in1.0 mm 0.00 in0.0 mm 0.76 in19.3 mm
07:28 PM 44.8°F7.1°C 42.9°F6.1°C 93% 3.1 mph SE5.0 kmh SE 3.8 mph6.1 kmh 29.59 in1002.0 mb 0.04 in1.0 mm 0.00 in0.0 mm 0.76 in19.3 mm
07:30 PM 44.8°F7.1°C 42.9°F6.1°C 93% 4.5 mph SE7.2 kmh SE 5.4 mph8.7 kmh 29.60 in1002.4 mb 0.04 in1.0 mm 0.00 in0.0 mm 0.76 in19.3 mm
07:32 PM 44.8°F7.1°C 42.9°F6.1°C 93% 5.4 mph SE8.7 kmh SE 6.0 mph9.7 kmh 29.60 in1002.4 mb 0.04 in1.0 mm 0.00 in0.0 mm 0.76 in19.3 mm
07:35 PM 44.8°F7.1°C 42.9°F6.1°C 93% 6.0 mph SE9.7 kmh SE 6.9 mph11.1 kmh 29.60 in1002.4 mb 0.04 in1.0 mm 0.00 in0.0 mm 0.76 in19.3 mm
07:36 PM 44.8°F7.1°C 42.9°F6.1°C 93% 6.0 mph SE9.7 kmh SE 7.6 mph12.2 kmh 29.60 in1002.4 mb 0.05 in1.3 mm 0.71 in18.0 mm 0.77 in19.6 mm
07:38 PM 44.8°F7.1°C 42.9°F6.1°C 93% 6.9 mph SE11.1 kmh SE 7.6 mph12.2 kmh 29.60 in1002.4 mb 0.04 in1.0 mm 0.00 in0.0 mm 0.77 in19.6 mm
07:40 PM 44.8°F7.1°C 42.9°F6.1°C 93% 6.9 mph SE11.1 kmh SE 7.6 mph12.2 kmh 29.60 in1002.4 mb 0.04 in1.0 mm 0.00 in0.0 mm 0.77 in19.6 mm
07:42 PM 44.6°F7.0°C 42.7°F5.9°C 93% 6.9 mph SE11.1 kmh SE 8.3 mph13.4 kmh 29.60 in1002.4 mb 0.04 in1.0 mm 0.00 in0.0 mm 0.77 in19.6 mm
07:45 PM 44.8°F7.1°C 42.9°F6.1°C 93% 6.9 mph SE11.1 kmh SE 7.6 mph12.2 kmh 29.60 in1002.4 mb 0.04 in1.0 mm 0.00 in0.0 mm 0.77 in19.6 mm
07:47 PM 44.8°F7.1°C 42.9°F6.1°C 93% 6.0 mph SE9.7 kmh SE 6.9 mph11.1 kmh 29.59 in1002.0 mb 0.05 in1.3 mm 0.35 in8.9 mm 0.78 in19.8 mm
07:49 PM 44.8°F7.1°C 42.9°F6.1°C 93% 6.0 mph SE9.7 kmh SE 6.9 mph11.1 kmh 29.59 in1002.0 mb 0.05 in1.3 mm 0.00 in0.0 mm 0.78 in19.8 mm
07:51 PM 44.8°F7.1°C 42.9°F6.1°C 93% 3.8 mph SE6.1 kmh SE 5.4 mph8.7 kmh 29.60 in1002.4 mb 0.04 in1.0 mm 0.00 in0.0 mm 0.78 in19.8 mm
07:53 PM 45.0°F7.2°C 43.1°F6.2°C 93% 6.0 mph SE9.7 kmh SE 6.0 mph9.7 kmh 29.60 in1002.4 mb 0.04 in1.0 mm 0.00 in0.0 mm 0.78 in19.8 mm
07:55 PM 45.0°F7.2°C 43.1°F6.2°C 93% 7.6 mph SE12.2 kmh SE 9.2 mph14.8 kmh 29.60 in1002.4 mb 0.04 in1.0 mm 0.00 in0.0 mm 0.78 in19.8 mm
07:57 PM 45.0°F7.2°C 43.1°F6.2°C 93% 6.0 mph SE9.7 kmh SE 6.9 mph11.1 kmh 29.59 in1002.0 mb 0.04 in1.0 mm 0.00 in0.0 mm 0.78 in19.8 mm
07:59 PM 45.0°F7.2°C 43.1°F6.2°C 93% 6.0 mph SE9.7 kmh SE 6.9 mph11.1 kmh 29.59 in1002.0 mb 0.04 in1.0 mm 0.00 in0.0 mm 0.78 in19.8 mm
08:01 PM 45.0°F7.2°C 43.1°F6.2°C 93% 6.0 mph SE9.7 kmh SE 6.9 mph11.1 kmh 29.60 in1002.4 mb 0.04 in1.0 mm 0.00 in0.0 mm 0.78 in19.8 mm
08:03 PM 45.0°F7.2°C 43.1°F6.2°C 93% 6.0 mph SE9.7 kmh SE 6.9 mph11.1 kmh 29.60 in1002.4 mb 0.04 in1.0 mm 0.00 in0.0 mm 0.78 in19.8 mm
08:05 PM 45.0°F7.2°C 43.1°F6.2°C 93% 6.0 mph SE9.7 kmh SE 6.9 mph11.1 kmh 29.60 in1002.4 mb 0.02 in0.5 mm 0.00 in0.0 mm 0.78 in19.8 mm
08:07 PM 44.6°F7.0°C 42.7°F5.9°C 93% 5.4 mph ENE8.7 kmh ENE 6.0 mph9.7 kmh 29.60 in1002.4 mb 0.04 in1.0 mm 0.35 in8.9 mm 0.79 in20.1 mm
08:09 PM 44.6°F7.0°C 42.7°F5.9°C 93% 4.5 mph E7.2 kmh E 5.4 mph8.7 kmh 29.60 in1002.4 mb 0.04 in1.0 mm 0.00 in0.0 mm 0.79 in20.1 mm
08:11 PM 44.4°F6.9°C 42.5°F5.8°C 93% 3.8 mph E6.1 kmh E 4.5 mph7.2 kmh 29.60 in1002.4 mb 0.05 in1.3 mm 0.35 in8.9 mm 0.80 in20.3 mm
08:13 PM 44.4°F6.9°C 42.5°F5.8°C 93% 3.8 mph E6.1 kmh E 5.4 mph8.7 kmh 29.60 in1002.4 mb 0.05 in1.3 mm 0.00 in0.0 mm 0.80 in20.3 mm
08:17 PM 44.2°F6.8°C 42.4°F5.8°C 93% 3.1 mph E5.0 kmh E 3.8 mph6.1 kmh 29.60 in1002.4 mb 0.05 in1.3 mm 0.00 in0.0 mm 0.80 in20.3 mm
08:19 PM 44.2°F6.8°C 42.4°F5.8°C 93% 4.5 mph E7.2 kmh E 5.4 mph8.7 kmh 29.60 in1002.4 mb 0.05 in1.3 mm 0.00 in0.0 mm 0.80 in20.3 mm
08:21 PM 44.2°F6.8°C 42.4°F5.8°C 93% 3.8 mph E6.1 kmh E 4.5 mph7.2 kmh 29.59 in1002.0 mb 0.05 in1.3 mm 0.00 in0.0 mm 0.80 in20.3 mm
08:23 PM 44.2°F6.8°C 42.4°F5.8°C 93% 3.1 mph E5.0 kmh E 3.8 mph6.1 kmh 29.60 in1002.4 mb 0.05 in1.3 mm 0.00 in0.0 mm 0.80 in20.3 mm
08:25 PM 44.2°F6.8°C 42.4°F5.8°C 93% 3.1 mph E5.0 kmh E 3.8 mph6.1 kmh 29.59 in1002.0 mb 0.06 in1.5 mm 0.36 in9.1 mm 0.82 in20.8 mm
08:27 PM 44.2°F6.8°C 42.4°F5.8°C 93% 3.8 mph E6.1 kmh E 4.5 mph7.2 kmh 29.60 in1002.4 mb 0.06 in1.5 mm 0.00 in0.0 mm 0.82 in20.8 mm
08:29 PM 44.2°F6.8°C 42.4°F5.8°C 93% 3.8 mph E6.1 kmh E 4.5 mph7.2 kmh 29.59 in1002.0 mb 0.06 in1.5 mm 0.00 in0.0 mm 0.82 in20.8 mm
08:31 PM 44.2°F6.8°C 42.4°F5.8°C 93% 5.4 mph E8.7 kmh E 6.0 mph9.7 kmh 29.60 in1002.4 mb 0.07 in1.8 mm 0.35 in8.9 mm 0.83 in21.1 mm
08:33 PM 44.2°F6.8°C 42.4°F5.8°C 93% 6.0 mph SE9.7 kmh SE 6.9 mph11.1 kmh 29.59 in1002.0 mb 0.07 in1.8 mm 0.00 in0.0 mm 0.83 in21.1 mm
08:35 PM 44.2°F6.8°C 42.4°F5.8°C 93% 6.0 mph SE9.7 kmh SE 8.3 mph13.4 kmh 29.60 in1002.4 mb 0.06 in1.5 mm 0.00 in0.0 mm 0.83 in21.1 mm
08:37 PM 44.4°F6.9°C 42.5°F5.8°C 93% 5.4 mph ENE8.7 kmh ENE 6.9 mph11.1 kmh 29.59 in1002.0 mb 0.06 in1.5 mm 0.00 in0.0 mm 0.83 in21.1 mm
08:39 PM 44.4°F6.9°C 42.5°F5.8°C 93% 6.0 mph SE9.7 kmh SE 7.6 mph12.2 kmh 29.59 in1002.0 mb 0.06 in1.5 mm 0.00 in0.0 mm 0.83 in21.1 mm
08:41 PM 44.4°F6.9°C 42.5°F5.8°C 93% 6.0 mph SE9.7 kmh SE 6.9 mph11.1 kmh 29.59 in1002.0 mb 0.06 in1.5 mm 0.00 in0.0 mm 0.83 in21.1 mm
08:43 PM 44.6°F7.0°C 42.7°F5.9°C 93% 4.5 mph SE7.2 kmh SE 5.4 mph8.7 kmh 29.59 in1002.0 mb 0.06 in1.5 mm 0.00 in0.0 mm 0.83 in21.1 mm
08:45 PM 44.6°F7.0°C 42.7°F5.9°C 93% 3.8 mph SE6.1 kmh SE 5.4 mph8.7 kmh 29.60 in1002.4 mb 0.06 in1.5 mm 0.00 in0.0 mm 0.84 in21.3 mm
08:47 PM 44.6°F7.0°C 42.7°F5.9°C 93% 6.9 mph SE11.1 kmh SE 7.6 mph12.2 kmh 29.59 in1002.0 mb 0.06 in1.5 mm 0.00 in0.0 mm 0.84 in21.3 mm
08:49 PM 44.6°F7.0°C 42.7°F5.9°C 93% 6.9 mph SSE11.1 kmh SSE 9.2 mph14.8 kmh 29.59 in1002.0 mb 0.06 in1.5 mm 0.00 in0.0 mm 0.84 in21.3 mm
08:51 PM 44.8°F7.1°C 42.9°F6.1°C 93% 6.0 mph SE9.7 kmh SE 7.6 mph12.2 kmh 29.60 in1002.4 mb 0.07 in1.8 mm 0.35 in8.9 mm 0.85 in21.6 mm
08:53 PM 44.8°F7.1°C 42.9°F6.1°C 93% 8.3 mph SE13.4 kmh SE 9.2 mph14.8 kmh 29.60 in1002.4 mb 0.07 in1.8 mm 0.00 in0.0 mm 0.85 in21.6 mm
08:55 PM 44.8°F7.1°C 42.9°F6.1°C 93% 6.9 mph SSE11.1 kmh SSE 7.6 mph12.2 kmh 29.59 in1002.0 mb 0.07 in1.8 mm 0.00 in0.0 mm 0.85 in21.6 mm
08:57 PM 44.8°F7.1°C 42.9°F6.1°C 93% 6.9 mph SE11.1 kmh SE 7.6 mph12.2 kmh 29.60 in1002.4 mb 0.07 in1.8 mm 0.00 in0.0 mm 0.85 in21.6 mm
08:59 PM 45.0°F7.2°C 43.1°F6.2°C 93% 7.6 mph SE12.2 kmh SE 8.3 mph13.4 kmh 29.60 in1002.4 mb 0.07 in1.8 mm 0.00 in0.0 mm 0.85 in21.6 mm
09:01 PM 45.0°F7.2°C 43.3°F6.3°C 94% 6.0 mph SE9.7 kmh SE 7.6 mph12.2 kmh 29.60 in1002.4 mb 0.07 in1.8 mm 0.00 in0.0 mm 0.85 in21.6 mm
09:03 PM 45.0°F7.2°C 43.3°F6.3°C 94% 5.4 mph SE8.7 kmh SE 6.0 mph9.7 kmh 29.60 in1002.4 mb 0.07 in1.8 mm 0.00 in0.0 mm 0.85 in21.6 mm
09:05 PM 45.0°F7.2°C 43.3°F6.3°C 94% 6.9 mph SE11.1 kmh SE 8.3 mph13.4 kmh 29.60 in1002.4 mb 0.07 in1.8 mm 0.00 in0.0 mm 0.85 in21.6 mm
09:07 PM 45.0°F7.2°C 43.3°F6.3°C 94% 5.4 mph SE8.7 kmh SE 6.9 mph11.1 kmh 29.60 in1002.4 mb 0.06 in1.5 mm 0.00 in0.0 mm 0.85 in21.6 mm
09:09 PM 45.0°F7.2°C 43.3°F6.3°C 94% 3.8 mph SE6.1 kmh SE 6.0 mph9.7 kmh 29.60 in1002.4 mb 0.06 in1.5 mm 0.00 in0.0 mm 0.86 in21.8 mm
09:11 PM 45.0°F7.2°C 43.3°F6.3°C 94% 6.0 mph SE9.7 kmh SE 7.6 mph12.2 kmh 29.60 in1002.4 mb 0.06 in1.5 mm 0.00 in0.0 mm 0.86 in21.8 mm
09:13 PM 45.0°F7.2°C 43.3°F6.3°C 94% 3.1 mph SE5.0 kmh SE 3.8 mph6.1 kmh 29.60 in1002.4 mb 0.06 in1.5 mm 0.00 in0.0 mm 0.86 in21.8 mm
09:15 PM 45.0°F7.2°C 43.3°F6.3°C 94% 4.5 mph SSE7.2 kmh SSE 5.4 mph8.7 kmh 29.60 in1002.4 mb 0.06 in1.5 mm 0.00 in0.0 mm 0.86 in21.8 mm
09:17 PM 45.0°F7.2°C 43.3°F6.3°C 94% 2.2 mph SE3.5 kmh SE 3.1 mph5.0 kmh 29.60 in1002.4 mb 0.06 in1.5 mm 0.00 in0.0 mm 0.86 in21.8 mm
09:19 PM 45.0°F7.2°C 43.3°F6.3°C 94% 3.8 mph SE6.1 kmh SE 4.5 mph7.2 kmh 29.60 in1002.4 mb 0.06 in1.5 mm 0.00 in0.0 mm 0.86 in21.8 mm
09:21 PM 45.0°F7.2°C 43.3°F6.3°C 94% 2.2 mph SE3.5 kmh SE 3.8 mph6.1 kmh 29.60 in1002.4 mb 0.07 in1.8 mm 0.35 in8.9 mm 0.87 in22.1 mm
09:23 PM 45.0°F7.2°C 43.3°F6.3°C 94% 2.2 mph SSE3.5 kmh SSE 3.1 mph5.0 kmh 29.60 in1002.4 mb 0.06 in1.5 mm 0.00 in0.0 mm 0.87 in22.1 mm
09:25 PM 44.8°F7.1°C 43.2°F6.2°C 94% 1.6 mph SE2.6 kmh SE 2.2 mph3.5 kmh 29.60 in1002.4 mb 0.06 in1.5 mm 0.00 in0.0 mm 0.87 in22.1 mm
09:27 PM 44.8°F7.1°C 43.2°F6.2°C 94% 3.1 mph SE5.0 kmh SE 4.5 mph7.2 kmh 29.60 in1002.4 mb 0.06 in1.5 mm 0.00 in0.0 mm 0.87 in22.1 mm
09:29 PM 44.8°F7.1°C 43.2°F6.2°C 94% 3.1 mph SE5.0 kmh SE 3.8 mph6.1 kmh 29.60 in1002.4 mb 0.06 in1.5 mm 0.00 in0.0 mm 0.87 in22.1 mm
09:31 PM 44.8°F7.1°C 42.9°F6.1°C 93% 3.1 mph SE5.0 kmh SE 3.8 mph6.1 kmh 29.60 in1002.4 mb 0.05 in1.3 mm 0.00 in0.0 mm 0.87 in22.1 mm
09:33 PM 44.8°F7.1°C 42.9°F6.1°C 93% 2.2 mph SE3.5 kmh SE 3.1 mph5.0 kmh 29.60 in1002.4 mb 0.05 in1.3 mm 0.00 in0.0 mm 0.87 in22.1 mm
09:35 PM 44.8°F7.1°C 42.9°F6.1°C 93% 1.6 mph SE2.6 kmh SE 2.2 mph3.5 kmh 29.61 in1002.7 mb 0.05 in1.3 mm 0.00 in0.0 mm 0.87 in22.1 mm
09:37 PM 44.6°F7.0°C 42.7°F5.9°C 93% 1.6 mph SE2.6 kmh SE 1.6 mph2.6 kmh 29.60 in1002.4 mb 0.05 in1.3 mm 0.00 in0.0 mm 0.87 in22.1 mm
09:39 PM 44.6°F7.0°C 42.7°F5.9°C 93% 2.2 mph S3.5 kmh S 3.1 mph5.0 kmh 29.60 in1002.4 mb 0.05 in1.3 mm 0.00 in0.0 mm 0.87 in22.1 mm
09:41 PM 44.6°F7.0°C 42.7°F5.9°C 93% 2.2 mph SE3.5 kmh SE 3.8 mph6.1 kmh 29.61 in1002.7 mb 0.05 in1.3 mm 0.00 in0.0 mm 0.87 in22.1 mm
09:43 PM 44.6°F7.0°C 42.7°F5.9°C 93% 3.1 mph SE5.0 kmh SE 4.5 mph7.2 kmh 29.61 in1002.7 mb 0.04 in1.0 mm 0.00 in0.0 mm 0.87 in22.1 mm
09:45 PM 44.6°F7.0°C 42.7°F5.9°C 93% 2.2 mph SE3.5 kmh SE 3.8 mph6.1 kmh 29.60 in1002.4 mb 0.04 in1.0 mm 0.00 in0.0 mm 0.87 in22.1 mm
09:47 PM 44.6°F7.0°C 42.7°F5.9°C 93% 3.1 mph SE5.0 kmh SE 4.5 mph7.2 kmh 29.61 in1002.7 mb 0.04 in1.0 mm 0.00 in0.0 mm 0.87 in22.1 mm
09:49 PM 44.6°F7.0°C 42.7°F5.9°C 93% 4.5 mph S7.2 kmh S 5.4 mph8.7 kmh 29.62 in1003.0 mb 0.04 in1.0 mm 0.00 in0.0 mm 0.87 in22.1 mm
09:51 PM 44.6°F7.0°C 43.0°F6.1°C 94% 3.8 mph SE6.1 kmh SE 5.4 mph8.7 kmh 29.60 in1002.4 mb 0.02 in0.5 mm 0.00 in0.0 mm 0.87 in22.1 mm
09:53 PM 44.8°F7.1°C 43.2°F6.2°C 94% 4.5 mph SE7.2 kmh SE 5.4 mph8.7 kmh 29.61 in1002.7 mb 0.02 in0.5 mm 0.00 in0.0 mm 0.87 in22.1 mm
09:55 PM 44.8°F7.1°C 43.2°F6.2°C 94% 5.4 mph SE8.7 kmh SE 6.9 mph11.1 kmh 29.61 in1002.7 mb 0.02 in0.5 mm 0.00 in0.0 mm 0.87 in22.1 mm
09:57 PM 44.8°F7.1°C 43.2°F6.2°C 94% 6.0 mph SE9.7 kmh SE 7.6 mph12.2 kmh 29.61 in1002.7 mb 0.02 in0.5 mm 0.00 in0.0 mm 0.87 in22.1 mm
09:59 PM 44.8°F7.1°C 43.2°F6.2°C 94% 5.4 mph SE8.7 kmh SE 6.0 mph9.7 kmh 29.61 in1002.7 mb 0.02 in0.5 mm 0.00 in0.0 mm 0.87 in22.1 mm
10:01 PM 44.8°F7.1°C 43.2°F6.2°C 94% 6.9 mph E11.1 kmh E 7.6 mph12.2 kmh 29.61 in1002.7 mb 0.02 in0.5 mm 0.00 in0.0 mm 0.87 in22.1 mm
10:03 PM 44.8°F7.1°C 43.2°F6.2°C 94% 7.6 mph E12.2 kmh E 9.2 mph14.8 kmh 29.60 in1002.4 mb 0.02 in0.5 mm 0.00 in0.0 mm 0.87 in22.1 mm
10:05 PM 44.8°F7.1°C 43.2°F6.2°C 94% 6.9 mph SE11.1 kmh SE 7.6 mph12.2 kmh 29.60 in1002.4 mb 0.02 in0.5 mm 0.00 in0.0 mm 0.87 in22.1 mm
10:07 PM 44.8°F7.1°C 43.2°F6.2°C 94% 6.9 mph ENE11.1 kmh ENE 7.6 mph12.2 kmh 29.60 in1002.4 mb 0.01 in0.3 mm 0.00 in0.0 mm 0.87 in22.1 mm
10:09 PM 44.6°F7.0°C 43.0°F6.1°C 94% 6.9 mph SE11.1 kmh SE 7.6 mph12.2 kmh 29.60 in1002.4 mb 0.01 in0.3 mm 0.00 in0.0 mm 0.87 in22.1 mm
10:11 PM 44.6°F7.0°C 42.7°F5.9°C 93% 6.9 mph ENE11.1 kmh ENE 8.3 mph13.4 kmh 29.60 in1002.4 mb 0.01 in0.3 mm 0.00 in0.0 mm 0.87 in22.1 mm
10:13 PM 44.4°F6.9°C 42.5°F5.8°C 93% 7.6 mph SE12.2 kmh SE 8.3 mph13.4 kmh 29.60 in1002.4 mb 0.01 in0.3 mm 0.00 in0.0 mm 0.87 in22.1 mm
10:15 PM 44.4°F6.9°C 42.5°F5.8°C 93% 7.6 mph ENE12.2 kmh ENE 8.3 mph13.4 kmh 29.60 in1002.4 mb 0.01 in0.3 mm 0.00 in0.0 mm 0.87 in22.1 mm
10:17 PM 44.2°F6.8°C 42.4°F5.8°C 93% 7.6 mph ENE12.2 kmh ENE 8.3 mph13.4 kmh 29.60 in1002.4 mb 0.01 in0.3 mm 0.00 in0.0 mm 0.87 in22.1 mm
10:19 PM 44.2°F6.8°C 42.4°F5.8°C 93% 6.0 mph ENE9.7 kmh ENE 6.9 mph11.1 kmh 29.60 in1002.4 mb 0.01 in0.3 mm 0.00 in0.0 mm 0.87 in22.1 mm
10:21 PM 44.2°F6.8°C 42.4°F5.8°C 93% 6.0 mph SE9.7 kmh SE 7.6 mph12.2 kmh 29.59 in1002.0 mb 0.00 in0.0 mm 0.00 in0.0 mm 0.87 in22.1 mm
10:23 PM 44.2°F6.8°C 42.4°F5.8°C 93% 6.0 mph SE9.7 kmh SE 6.9 mph11.1 kmh 29.60 in1002.4 mb 0.00 in0.0 mm 0.00 in0.0 mm 0.87 in22.1 mm
10:25 PM 44.2°F6.8°C 42.4°F5.8°C 93% 5.4 mph SE8.7 kmh SE 6.9 mph11.1 kmh 29.60 in1002.4 mb 0.00 in0.0 mm 0.00 in0.0 mm 0.87 in22.1 mm
10:27 PM 44.2°F6.8°C 42.4°F5.8°C 93% 6.9 mph SE11.1 kmh SE 7.6 mph12.2 kmh 29.60 in1002.4 mb 0.00 in0.0 mm 0.00 in0.0 mm 0.87 in22.1 mm
10:29 PM 44.1°F6.7°C 42.2°F5.7°C 93% 6.0 mph SE9.7 kmh SE 7.6 mph12.2 kmh 29.60 in1002.4 mb 0.00 in0.0 mm 0.00 in0.0 mm 0.87 in22.1 mm
10:31 PM 44.1°F6.7°C 42.2°F5.7°C 93% 6.0 mph S9.7 kmh S 7.6 mph12.2 kmh 29.60 in1002.4 mb 0.00 in0.0 mm 0.00 in0.0 mm 0.87 in22.1 mm
10:33 PM 44.1°F6.7°C 42.2°F5.7°C 93% 6.9 mph S11.1 kmh S 7.6 mph12.2 kmh 29.61 in1002.7 mb 0.00 in0.0 mm 0.00 in0.0 mm 0.87 in22.1 mm
10:35 PM 44.1°F6.7°C 42.2°F5.7°C 93% 3.1 mph SE5.0 kmh SE 4.5 mph7.2 kmh 29.60 in1002.4 mb 0.00 in0.0 mm 0.00 in0.0 mm 0.87 in22.1 mm
10:37 PM 44.1°F6.7°C 42.2°F5.7°C 93% 5.4 mph SE8.7 kmh SE 6.0 mph9.7 kmh 29.60 in1002.4 mb 0.00 in0.0 mm 0.00 in0.0 mm 0.87 in22.1 mm
10:39 PM 44.1°F6.7°C 42.2°F5.7°C 93% 5.4 mph SE8.7 kmh SE 6.0 mph9.7 kmh 29.60 in1002.4 mb 0.00 in0.0 mm 0.00 in0.0 mm 0.87 in22.1 mm
10:41 PM 44.1°F6.7°C 42.2°F5.7°C 93% 6.9 mph SE11.1 kmh SE 7.6 mph12.2 kmh 29.60 in1002.4 mb 0.00 in0.0 mm 0.00 in0.0 mm 0.87 in22.1 mm
10:43 PM 44.1°F6.7°C 42.2°F5.7°C 93% 0.7 mph S1.1 kmh S 1.6 mph2.6 kmh 29.60 in1002.4 mb 0.00 in0.0 mm 0.00 in0.0 mm 0.87 in22.1 mm
10:45 PM 44.1°F6.7°C 42.2°F5.7°C 93% 1.6 mph S2.6 kmh S 2.2 mph3.5 kmh 29.61 in1002.7 mb 0.00 in0.0 mm 0.00 in0.0 mm 0.87 in22.1 mm
10:47 PM 44.1°F6.7°C 42.2°F5.7°C 93% 1.6 mph SW2.6 kmh SW 3.1 mph5.0 kmh 29.60 in1002.4 mb 0.00 in0.0 mm 0.00 in0.0 mm 0.87 in22.1 mm
10:49 PM 44.1°F6.7°C 42.2°F5.7°C 93% 3.1 mph S5.0 kmh S 3.8 mph6.1 kmh 29.61 in1002.7 mb 0.00 in0.0 mm 0.00 in0.0 mm 0.87 in22.1 mm
10:51 PM 44.1°F6.7°C 42.2°F5.7°C 93% 2.2 mph SSE3.5 kmh SSE 3.1 mph5.0 kmh 29.61 in1002.7 mb 0.00 in0.0 mm 0.00 in0.0 mm 0.87 in22.1 mm
10:53 PM 44.1°F6.7°C 42.2°F5.7°C 93% 0.7 mph SSE1.1 kmh SSE 1.6 mph2.6 kmh 29.61 in1002.7 mb 0.00 in0.0 mm 0.00 in0.0 mm 0.87 in22.1 mm
10:55 PM 44.1°F6.7°C 42.2°F5.7°C 93% 2.2 mph SE3.5 kmh SE 3.8 mph6.1 kmh 29.61 in1002.7 mb 0.00 in0.0 mm 0.00 in0.0 mm 0.87 in22.1 mm
10:57 PM 43.9°F6.6°C 42.0°F5.6°C 93% 0.7 mph SE1.1 kmh SE 1.6 mph2.6 kmh 29.61 in1002.7 mb 0.00 in0.0 mm 0.00 in0.0 mm 0.87 in22.1 mm
10:59 PM 43.9°F6.6°C 42.0°F5.6°C 93% 0.7 mph SE1.1 kmh SE 1.6 mph2.6 kmh 29.61 in1002.7 mb 0.00 in0.0 mm 0.00 in0.0 mm 0.87 in22.1 mm
11:01 PM 43.9°F6.6°C 42.0°F5.6°C 93% 0.7 mph S1.1 kmh S 3.1 mph5.0 kmh 29.61 in1002.7 mb 0.00 in0.0 mm 0.00 in0.0 mm 0.87 in22.1 mm
11:03 PM 44.1°F6.7°C 42.2°F5.7°C 93% 2.2 mph S3.5 kmh S 3.1 mph5.0 kmh 29.61 in1002.7 mb 0.00 in0.0 mm 0.00 in0.0 mm 0.87 in22.1 mm
11:06 PM 44.1°F6.7°C 42.2°F5.7°C 93% 4.5 mph S7.2 kmh S 6.0 mph9.7 kmh 29.61 in1002.7 mb 0.00 in0.0 mm 0.00 in0.0 mm 0.87 in22.1 mm
11:08 PM 44.1°F6.7°C 42.2°F5.7°C 93% 3.1 mph S5.0 kmh S 3.8 mph6.1 kmh 29.62 in1003.0 mb 0.00 in0.0 mm 0.00 in0.0 mm 0.87 in22.1 mm
11:10 PM 44.1°F6.7°C 42.2°F5.7°C 93% 0.7 mph S1.1 kmh S 2.2 mph3.5 kmh 29.61 in1002.7 mb 0.00 in0.0 mm 0.00 in0.0 mm 0.87 in22.1 mm
11:12 PM 44.1°F6.7°C 42.2°F5.7°C 93% 4.5 mph SSE7.2 kmh SSE 5.4 mph8.7 kmh 29.61 in1002.7 mb 0.00 in0.0 mm 0.00 in0.0 mm 0.87 in22.1 mm
11:14 PM 44.1°F6.7°C 42.2°F5.7°C 93% 4.5 mph S7.2 kmh S 5.4 mph8.7 kmh 29.60 in1002.4 mb 0.00 in0.0 mm 0.00 in0.0 mm 0.87 in22.1 mm
11:16 PM 44.1°F6.7°C 42.2°F5.7°C 93% 2.2 mph S3.5 kmh S 3.1 mph5.0 kmh 29.61 in1002.7 mb 0.00 in0.0 mm 0.00 in0.0 mm 0.87 in22.1 mm
11:18 PM 44.1°F6.7°C 42.2°F5.7°C 93% 3.1 mph SSE5.0 kmh SSE 4.5 mph7.2 kmh 29.62 in1003.0 mb 0.00 in0.0 mm 0.00 in0.0 mm 0.87 in22.1 mm
11:20 PM 44.1°F6.7°C 42.2°F5.7°C 93% 1.6 mph S2.6 kmh S 2.2 mph3.5 kmh 29.61 in1002.7 mb 0.00 in0.0 mm 0.00 in0.0 mm 0.87 in22.1 mm
11:22 PM 44.1°F6.7°C 42.2°F5.7°C 93% 1.6 mph SE2.6 kmh SE 2.2 mph3.5 kmh 29.61 in1002.7 mb 0.00 in0.0 mm 0.00 in0.0 mm 0.87 in22.1 mm
11:24 PM 44.1°F6.7°C 42.2°F5.7°C 93% 1.6 mph S2.6 kmh S 2.2 mph3.5 kmh 29.61 in1002.7 mb 0.00 in0.0 mm 0.00 in0.0 mm 0.87 in22.1 mm
11:26 PM 44.1°F6.7°C 42.2°F5.7°C 93% 1.6 mph SE2.6 kmh SE 2.2 mph3.5 kmh 29.61 in1002.7 mb 0.00 in0.0 mm 0.00 in0.0 mm 0.87 in22.1 mm
11:28 PM 44.1°F6.7°C 42.2°F5.7°C 93% 1.6 mph SE2.6 kmh SE 2.2 mph3.5 kmh 29.61 in1002.7 mb 0.00 in0.0 mm 0.00 in0.0 mm 0.87 in22.1 mm
11:30 PM 44.1°F6.7°C 42.2°F5.7°C 93% 1.6 mph SE2.6 kmh SE 2.2 mph3.5 kmh 29.62 in1003.0 mb 0.00 in0.0 mm 0.00 in0.0 mm 0.87 in22.1 mm
11:32 PM 44.1°F6.7°C 42.2°F5.7°C 93% 2.2 mph SE3.5 kmh SE 3.8 mph6.1 kmh 29.62 in1003.0 mb 0.00 in0.0 mm 0.00 in0.0 mm 0.87 in22.1 mm
11:34 PM 44.1°F6.7°C 42.2°F5.7°C 93% 4.5 mph SE7.2 kmh SE 5.4 mph8.7 kmh 29.62 in1003.0 mb 0.00 in0.0 mm 0.00 in0.0 mm 0.87 in22.1 mm
11:36 PM 44.1°F6.7°C 42.2°F5.7°C 93% 6.0 mph SE9.7 kmh SE 7.6 mph12.2 kmh 29.61 in1002.7 mb 0.00 in0.0 mm 0.00 in0.0 mm 0.87 in22.1 mm
11:38 PM 44.1°F6.7°C 42.2°F5.7°C 93% 6.0 mph SE9.7 kmh SE 6.9 mph11.1 kmh 29.62 in1003.0 mb 0.01 in0.3 mm 0.35 in8.9 mm 0.89 in22.6 mm
11:40 PM 44.1°F6.7°C 42.2°F5.7°C 93% 6.9 mph SE11.1 kmh SE 7.6 mph12.2 kmh 29.61 in1002.7 mb 0.01 in0.3 mm 0.00 in0.0 mm 0.89 in22.6 mm
11:42 PM 44.1°F6.7°C 42.2°F5.7°C 93% 6.0 mph SE9.7 kmh SE 6.9 mph11.1 kmh 29.62 in1003.0 mb 0.01 in0.3 mm 0.00 in0.0 mm 0.89 in22.6 mm
11:44 PM 44.1°F6.7°C 42.2°F5.7°C 93% 6.0 mph SE9.7 kmh SE 7.6 mph12.2 kmh 29.62 in1003.0 mb 0.01 in0.3 mm 0.00 in0.0 mm 0.89 in22.6 mm
11:46 PM 44.1°F6.7°C 42.2°F5.7°C 93% 6.9 mph SE11.1 kmh SE 7.6 mph12.2 kmh 29.61 in1002.7 mb 0.01 in0.3 mm 0.00 in0.0 mm 0.89 in22.6 mm
11:48 PM 44.1°F6.7°C 42.2°F5.7°C 93% 6.9 mph SE11.1 kmh SE 8.3 mph13.4 kmh 29.61 in1002.7 mb 0.01 in0.3 mm 0.00 in0.0 mm 0.89 in22.6 mm
11:50 PM 43.9°F6.6°C 42.0°F5.6°C 93% 6.9 mph SE11.1 kmh SE 7.6 mph12.2 kmh 29.62 in1003.0 mb 0.01 in0.3 mm 0.00 in0.0 mm 0.89 in22.6 mm
11:52 PM 43.9°F6.6°C 42.0°F5.6°C 93% 3.1 mph SE5.0 kmh SE 3.8 mph6.1 kmh 29.63 in1003.4 mb 0.01 in0.3 mm 0.00 in0.0 mm 0.89 in22.6 mm
11:54 PM 43.9°F6.6°C 42.0°F5.6°C 93% 7.6 mph SE12.2 kmh SE 9.8 mph15.8 kmh 29.62 in1003.0 mb 0.01 in0.3 mm 0.00 in0.0 mm 0.89 in22.6 mm
11:56 PM 43.9°F6.6°C 42.0°F5.6°C 93% 3.8 mph S6.1 kmh S 4.5 mph7.2 kmh 29.62 in1003.0 mb 0.01 in0.3 mm 0.00 in0.0 mm 0.89 in22.6 mm
11:58 PM 43.9°F6.6°C 42.0°F5.6°C 93% 6.0 mph SE9.7 kmh SE 7.6 mph12.2 kmh 29.62 in1003.0 mb 0.01 in0.3 mm 0.00 in0.0 mm 0.89 in22.6 mm